Time,TemperatureF,DewpointF,PressureIn,WindDirection,WindDirectionDegrees,WindSpeedMPH,WindSpeedGustMPH,Humidity,HourlyPrecipIn,Conditions,Clouds,dailyrainin,SoftwareType,DateUTC
2013-03-27 00:00:00,43.2,31.1,29.82,WNW,293,1.1,2.7,62,0.00,,,0.00,WUHU216HW,2013-03-27 04:00:00,
2013-03-27 00:01:00,43.2,31.1,29.82,WNW,293,0.4,2.7,62,0.00,,,0.00,WUHU216HW,2013-03-27 04:01:00,
2013-03-27 00:03:00,43.2,31.1,29.82,WSW,248,1.6,2.7,62,0.00,,,0.00,WUHU216HW,2013-03-27 04:03:00,
2013-03-27 00:04:00,43.0,30.9,29.82,West,270,0.4,2.5,62,0.00,,,0.00,WUHU216HW,2013-03-27 04:04:00,
2013-03-27 00:06:00,43.0,30.9,29.82,SW,225,1.1,2.5,62,0.00,,,0.00,WUHU216HW,2013-03-27 04:06:00,
2013-03-27 00:07:00,43.0,31.2,29.82,SW,225,1.1,2.5,63,0.00,,,0.00,WUHU216HW,2013-03-27 04:07:00,
2013-03-27 00:09:00,43.0,31.2,29.82,NNW,338,2.0,2.5,63,0.00,,,0.00,WUHU216HW,2013-03-27 04:09:00,
2013-03-27 00:10:00,43.0,31.2,29.82,WSW,248,1.3,2.5,63,0.00,,,0.00,WUHU216HW,2013-03-27 04:10:00,
2013-03-27 00:12:00,43.0,31.2,29.82,SW,225,0.2,2.0,63,0.00,,,0.00,WUHU216HW,2013-03-27 04:12:00,
2013-03-27 00:13:00,42.8,31.1,29.82,SW,225,0.9,2.0,63,0.00,,,0.00,WUHU216HW,2013-03-27 04:13:00,
2013-03-27 00:15:00,43.0,31.2,29.82,SW,225,0.4,2.0,63,0.00,,,0.00,WUHU216HW,2013-03-27 04:15:00,
2013-03-27 00:16:00,42.8,31.1,29.82,SW,225,0.2,2.0,63,0.00,,,0.00,WUHU216HW,2013-03-27 04:16:00,
2013-03-27 00:18:00,42.8,31.1,29.82,WSW,248,0.9,2.0,63,0.00,,,0.00,WUHU216HW,2013-03-27 04:18:00,
2013-03-27 00:19:00,42.8,31.1,29.82,SW,225,0.7,1.3,63,0.00,,,0.00,WUHU216HW,2013-03-27 04:19:00,
2013-03-27 00:21:00,42.8,31.1,29.82,SW,225,1.1,1.6,63,0.00,,,0.00,WUHU216HW,2013-03-27 04:21:00,
2013-03-27 00:22:00,42.8,31.1,29.82,West,270,1.1,1.6,63,0.00,,,0.00,WUHU216HW,2013-03-27 04:22:00,
2013-03-27 00:24:00,42.8,31.1,29.82,West,270,2.5,2.5,63,0.00,,,0.00,WUHU216HW,2013-03-27 04:24:00,
2013-03-27 00:25:00,42.7,30.9,29.82,SW,225,1.3,2.5,63,0.00,,,0.00,WUHU216HW,2013-03-27 04:25:00,
2013-03-27 00:27:00,42.7,30.9,29.82,WSW,248,1.3,2.5,63,0.00,,,0.00,WUHU216HW,2013-03-27 04:27:00,
2013-03-27 00:28:00,42.7,30.9,29.82,WSW,248,0.4,2.5,63,0.00,,,0.00,WUHU216HW,2013-03-27 04:28:00,
2013-03-27 00:30:00,42.5,30.7,29.82,SW,225,0.2,2.5,63,0.00,,,0.00,WUHU216HW,2013-03-27 04:30:00,
2013-03-27 00:31:00,42.5,30.7,29.82,WSW,248,1.1,2.5,63,0.00,,,0.00,WUHU216HW,2013-03-27 04:31:00,
2013-03-27 00:33:00,42.5,30.7,29.82,SW,225,1.8,2.5,63,0.00,,,0.00,WUHU216HW,2013-03-27 04:33:00,
2013-03-27 00:34:00,42.5,30.7,29.82,West,270,1.3,2.0,63,0.00,,,0.00,WUHU216HW,2013-03-27 04:34:00,
2013-03-27 00:36:00,42.5,30.7,29.82,SW,225,2.5,2.5,63,0.00,,,0.00,WUHU216HW,2013-03-27 04:36:00,
2013-03-27 00:37:00,42.5,30.7,29.82,WSW,248,1.1,2.5,63,0.00,,,0.00,WUHU216HW,2013-03-27 04:37:00,
2013-03-27 00:39:00,42.3,30.6,29.82,WSW,248,2.5,2.5,63,0.00,,,0.00,WUHU216HW,2013-03-27 04:39:00,
2013-03-27 00:40:00,42.3,30.6,29.83,WSW,248,1.6,2.5,63,0.00,,,0.00,WUHU216HW,2013-03-27 04:40:00,
2013-03-27 00:42:00,42.3,30.6,29.83,West,270,1.8,2.5,63,0.00,,,0.00,WUHU216HW,2013-03-27 04:42:00,
2013-03-27 00:43:00,42.3,31.0,29.83,NW,315,1.1,2.5,64,0.00,,,0.00,WUHU216HW,2013-03-27 04:43:00,
2013-03-27 00:45:00,42.1,30.8,29.83,West,270,1.1,2.5,64,0.00,,,0.00,WUHU216HW,2013-03-27 04:45:00,
2013-03-27 00:46:00,42.1,30.8,29.83,WSW,248,1.1,2.5,64,0.00,,,0.00,WUHU216HW,2013-03-27 04:46:00,
2013-03-27 00:48:00,42.1,30.8,29.83,WSW,248,1.3,2.5,64,0.00,,,0.00,WUHU216HW,2013-03-27 04:48:00,
2013-03-27 00:49:00,42.1,30.8,29.83,WSW,248,0.9,1.8,64,0.00,,,0.00,WUHU216HW,2013-03-27 04:49:00,
2013-03-27 00:50:00,42.1,30.8,29.83,WSW,248,1.3,1.8,64,0.00,,,0.00,WUHU216HW,2013-03-27 04:50:00,
2013-03-27 00:52:00,41.9,30.6,29.83,SW,225,0.9,1.8,64,0.00,,,0.00,WUHU216HW,2013-03-27 04:52:00,
2013-03-27 00:53:00,41.9,30.6,29.83,SW,225,0.7,1.8,64,0.00,,,0.00,WUHU216HW,2013-03-27 04:53:00,
2013-03-27 00:55:00,41.9,30.6,29.83,West,270,1.1,1.8,64,0.00,,,0.00,WUHU216HW,2013-03-27 04:55:00,
2013-03-27 00:56:00,41.9,30.6,29.83,West,270,0.9,1.8,64,0.00,,,0.00,WUHU216HW,2013-03-27 04:56:00,
2013-03-27 00:58:00,41.8,30.4,29.83,SW,225,0.4,1.8,64,0.00,,,0.00,WUHU216HW,2013-03-27 04:58:00,
2013-03-27 01:00:00,41.8,30.4,29.83,WSW,248,1.3,1.8,64,0.00,,,0.00,WUHU216HW,2013-03-27 05:00:00,
2013-03-27 01:01:00,41.8,30.4,29.83,WSW,248,1.1,1.6,64,0.00,,,0.00,WUHU216HW,2013-03-27 05:01:00,
2013-03-27 01:03:00,41.8,30.4,29.83,SW,225,0.7,1.6,64,0.00,,,0.00,WUHU216HW,2013-03-27 05:03:00,
2013-03-27 01:04:00,41.8,30.4,29.83,SSW,203,1.8,1.8,64,0.00,,,0.00,WUHU216HW,2013-03-27 05:04:00,
2013-03-27 01:06:00,41.8,30.9,29.83,WSW,248,1.6,1.8,65,0.00,,,0.00,WUHU216HW,2013-03-27 05:06:00,
2013-03-27 01:07:00,41.6,30.7,29.83,WSW,248,1.1,1.8,65,0.00,,,0.00,WUHU216HW,2013-03-27 05:07:00,
2013-03-27 01:09:00,41.6,30.7,29.83,SW,225,1.1,1.8,65,0.00,,,0.00,WUHU216HW,2013-03-27 05:09:00,
2013-03-27 01:10:00,41.6,30.7,29.83,SW,225,1.1,1.8,65,0.00,,,0.00,WUHU216HW,2013-03-27 05:10:00,
2013-03-27 01:11:00,41.6,30.7,29.83,SW,225,1.8,1.8,65,0.00,,,0.00,WUHU216HW,2013-03-27 05:11:00,
2013-03-27 01:13:00,41.6,30.7,29.83,WSW,248,1.3,2.7,65,0.00,,,0.00,WUHU216HW,2013-03-27 05:13:00,
2013-03-27 01:14:00,41.6,30.7,29.83,WSW,248,1.1,2.7,65,0.00,,,0.00,WUHU216HW,2013-03-27 05:14:00,
2013-03-27 01:16:00,41.4,30.5,29.83,WSW,248,1.8,2.7,65,0.00,,,0.00,WUHU216HW,2013-03-27 05:16:00,
2013-03-27 01:17:00,41.4,30.5,29.83,WNW,293,1.1,2.7,65,0.00,,,0.00,WUHU216HW,2013-03-27 05:17:00,
2013-03-27 01:19:00,41.4,30.5,29.83,SW,225,1.8,2.7,65,0.00,,,0.00,WUHU216HW,2013-03-27 05:19:00,
2013-03-27 01:20:00,41.4,30.5,29.83,West,270,2.5,2.7,65,0.00,,,0.00,WUHU216HW,2013-03-27 05:20:00,
2013-03-27 01:22:00,41.4,30.5,29.83,West,270,1.1,2.5,65,0.00,,,0.00,WUHU216HW,2013-03-27 05:22:00,
2013-03-27 01:23:00,41.4,30.5,29.83,WSW,248,1.8,2.5,65,0.00,,,0.00,WUHU216HW,2013-03-27 05:23:00,
2013-03-27 01:25:00,41.4,30.5,29.83,WSW,248,2.5,2.5,65,0.00,,,0.00,WUHU216HW,2013-03-27 05:25:00,
2013-03-27 01:26:00,41.2,30.3,29.83,WSW,248,1.1,2.5,65,0.00,,,0.00,WUHU216HW,2013-03-27 05:26:00,
2013-03-27 01:28:00,41.2,30.3,29.83,SW,225,0.7,2.5,65,0.00,,,0.00,WUHU216HW,2013-03-27 05:28:00,
2013-03-27 01:29:00,41.2,30.3,29.83,WSW,248,1.6,2.5,65,0.00,,,0.00,WUHU216HW,2013-03-27 05:29:00,
2013-03-27 01:31:00,41.0,30.5,29.83,WNW,293,1.1,2.5,66,0.00,,,0.00,WUHU216HW,2013-03-27 05:31:00,
2013-03-27 01:32:00,41.0,30.5,29.83,SSW,203,2.2,2.5,66,0.00,,,0.00,WUHU216HW,2013-03-27 05:32:00,
2013-03-27 01:34:00,41.0,30.5,29.83,SSW,203,0.4,2.5,66,0.00,,,0.00,WUHU216HW,2013-03-27 05:34:00,
2013-03-27 01:35:00,41.0,30.5,29.83,WSW,248,2.0,2.2,66,0.00,,,0.00,WUHU216HW,2013-03-27 05:35:00,
2013-03-27 01:37:00,40.9,30.3,29.83,WSW,248,0.9,2.9,66,0.00,,,0.00,WUHU216HW,2013-03-27 05:37:00,
2013-03-27 01:38:00,40.9,30.3,29.83,SW,225,2.0,2.9,66,0.00,,,0.00,WUHU216HW,2013-03-27 05:38:00,
2013-03-27 01:40:00,40.9,30.3,29.83,WSW,248,0.9,2.9,66,0.00,,,0.00,WUHU216HW,2013-03-27 05:40:00,
2013-03-27 01:41:00,40.9,30.3,29.83,West,270,0.4,2.9,66,0.00,,,0.00,WUHU216HW,2013-03-27 05:41:00,
2013-03-27 01:43:00,40.9,30.3,29.83,West,270,2.7,2.9,66,0.00,,,0.00,WUHU216HW,2013-03-27 05:43:00,
2013-03-27 01:44:00,40.9,30.3,29.83,SW,225,1.1,2.9,66,0.00,,,0.00,WUHU216HW,2013-03-27 05:44:00,
2013-03-27 01:46:00,40.7,30.2,29.83,SSW,203,1.1,2.7,66,0.00,,,0.00,WUHU216HW,2013-03-27 05:46:00,
2013-03-27 01:47:00,40.7,30.2,29.83,SW,225,1.1,2.7,66,0.00,,,0.00,WUHU216HW,2013-03-27 05:47:00,
2013-03-27 01:49:00,40.7,30.2,29.83,West,270,2.2,2.7,66,0.00,,,0.00,WUHU216HW,2013-03-27 05:49:00,
2013-03-27 01:50:00,40.7,30.5,29.83,WNW,293,2.0,2.7,67,0.00,,,0.00,WUHU216HW,2013-03-27 05:50:00,
2013-03-27 01:52:00,40.7,30.5,29.83,West,270,1.8,2.7,67,0.00,,,0.00,WUHU216HW,2013-03-27 05:52:00,
2013-03-27 01:53:00,40.7,30.5,29.83,WSW,248,0.4,2.5,67,0.00,,,0.00,WUHU216HW,2013-03-27 05:53:00,
2013-03-27 01:55:00,40.7,30.5,29.83,SW,225,0.7,3.1,67,0.00,,,0.00,WUHU216HW,2013-03-27 05:55:00,
2013-03-27 01:56:00,40.7,30.5,29.83,West,270,1.1,3.1,67,0.00,,,0.00,WUHU216HW,2013-03-27 05:56:00,
2013-03-27 01:58:00,40.5,30.3,29.83,SW,225,0.7,3.1,67,0.00,,,0.00,WUHU216HW,2013-03-27 05:58:00,
2013-03-27 01:59:00,40.5,30.3,29.83,WSW,248,2.2,3.1,67,0.00,,,0.00,WUHU216HW,2013-03-27 05:59:00,
2013-03-27 02:01:00,40.5,30.3,29.83,SW,225,0.9,3.1,67,0.00,,,0.00,WUHU216HW,2013-03-27 06:01:00,
2013-03-27 02:02:00,40.5,30.3,29.83,North,0,0.7,3.1,67,0.00,,,0.00,WUHU216HW,2013-03-27 06:02:00,
2013-03-27 02:04:00,40.5,30.3,29.83,WSW,248,1.3,2.2,67,0.00,,,0.00,WUHU216HW,2013-03-27 06:04:00,
2013-03-27 02:05:00,40.5,30.3,29.83,West,270,4.0,4.0,67,0.00,,,0.00,WUHU216HW,2013-03-27 06:05:00,
2013-03-27 02:07:00,40.3,30.2,29.83,NW,315,0.9,4.0,67,0.00,,,0.00,WUHU216HW,2013-03-27 06:07:00,
2013-03-27 02:08:00,40.3,30.2,29.83,WSW,248,2.2,4.0,67,0.00,,,0.00,WUHU216HW,2013-03-27 06:08:00,
2013-03-27 02:10:00,40.3,30.2,29.83,West,270,2.7,4.0,67,0.00,,,0.00,WUHU216HW,2013-03-27 06:10:00,
2013-03-27 02:11:00,40.3,30.2,29.83,WNW,293,1.1,4.0,67,0.00,,,0.00,WUHU216HW,2013-03-27 06:11:00,
2013-03-27 02:13:00,40.3,30.2,29.83,WSW,248,0.4,4.0,67,0.00,,,0.00,WUHU216HW,2013-03-27 06:13:00,
2013-03-27 02:14:00,40.3,30.2,29.83,SSW,203,1.1,4.0,67,0.00,,,0.00,WUHU216HW,2013-03-27 06:14:00,
2013-03-27 02:16:00,40.1,30.0,29.83,WNW,293,1.3,3.4,67,0.00,,,0.00,WUHU216HW,2013-03-27 06:16:00,
2013-03-27 02:17:00,40.1,30.0,29.83,WSW,248,1.1,3.4,67,0.00,,,0.00,WUHU216HW,2013-03-27 06:17:00,
2013-03-27 02:19:00,40.1,30.0,29.83,West,270,2.5,3.4,67,0.00,,,0.00,WUHU216HW,2013-03-27 06:19:00,
2013-03-27 02:20:00,40.1,30.0,29.83,West,270,1.3,3.4,67,0.00,,,0.00,WUHU216HW,2013-03-27 06:20:00,
2013-03-27 02:22:00,40.1,30.0,29.83,SW,225,1.8,2.5,67,0.00,,,0.00,WUHU216HW,2013-03-27 06:22:00,
2013-03-27 02:23:00,40.1,30.0,29.83,SW,225,0.7,2.5,67,0.00,,,0.00,WUHU216HW,2013-03-27 06:23:00,
2013-03-27 02:25:00,40.1,30.0,29.83,SW,225,1.6,2.7,67,0.00,,,0.00,WUHU216HW,2013-03-27 06:25:00,
2013-03-27 02:26:00,40.1,30.0,29.83,NW,315,1.6,2.7,67,0.00,,,0.00,WUHU216HW,2013-03-27 06:26:00,
2013-03-27 02:28:00,40.0,29.8,29.83,West,270,2.5,2.7,67,0.00,,,0.00,WUHU216HW,2013-03-27 06:28:00,
2013-03-27 02:29:00,40.0,29.8,29.83,WSW,248,4.0,4.0,67,0.00,,,0.00,WUHU216HW,2013-03-27 06:29:00,
2013-03-27 02:31:00,40.0,29.8,29.83,WSW,248,0.9,4.0,67,0.00,,,0.00,WUHU216HW,2013-03-27 06:31:00,
2013-03-27 02:32:00,40.0,29.8,29.83,West,270,1.8,4.0,67,0.00,,,0.00,WUHU216HW,2013-03-27 06:32:00,
2013-03-27 02:34:00,40.0,29.8,29.83,West,270,2.2,4.0,67,0.00,,,0.00,WUHU216HW,2013-03-27 06:34:00,
2013-03-27 02:35:00,40.0,29.8,29.83,West,270,2.2,4.0,67,0.00,,,0.00,WUHU216HW,2013-03-27 06:35:00,
2013-03-27 02:37:00,40.0,29.8,29.83,West,270,1.1,4.0,67,0.00,,,0.00,WUHU216HW,2013-03-27 06:37:00,
2013-03-27 02:38:00,40.0,29.8,29.83,West,270,3.1,4.0,67,0.00,,,0.00,WUHU216HW,2013-03-27 06:38:00,
2013-03-27 02:40:00,40.0,29.8,29.83,WSW,248,1.1,3.1,67,0.00,,,0.00,WUHU216HW,2013-03-27 06:40:00,
2013-03-27 02:41:00,40.0,29.8,29.83,NNW,338,2.5,3.1,67,0.00,,,0.00,WUHU216HW,2013-03-27 06:41:00,
2013-03-27 02:43:00,39.8,29.6,29.83,West,270,0.7,3.1,67,0.00,,,0.00,WUHU216HW,2013-03-27 06:43:00,
2013-03-27 02:44:00,39.8,29.6,29.83,WNW,293,1.8,3.1,67,0.00,,,0.00,WUHU216HW,2013-03-27 06:44:00,
2013-03-27 02:46:00,39.8,29.6,29.83,North,0,3.4,3.4,67,0.00,,,0.00,WUHU216HW,2013-03-27 06:46:00,
2013-03-27 02:47:00,39.8,30.1,29.83,West,270,2.7,3.4,68,0.00,,,0.00,WUHU216HW,2013-03-27 06:47:00,
2013-03-27 02:49:00,39.8,30.1,29.83,SW,225,0.7,3.4,68,0.00,,,0.00,WUHU216HW,2013-03-27 06:49:00,
2013-03-27 02:50:00,39.8,30.1,29.83,West,270,1.3,3.4,68,0.00,,,0.00,WUHU216HW,2013-03-27 06:50:00,
2013-03-27 02:52:00,39.8,30.1,29.83,WSW,248,1.1,3.4,68,0.00,,,0.00,WUHU216HW,2013-03-27 06:52:00,
2013-03-27 02:53:00,39.8,30.1,29.83,SW,225,1.6,3.4,68,0.00,,,0.00,WUHU216HW,2013-03-27 06:53:00,
2013-03-27 02:55:00,39.8,30.1,29.83,WNW,293,2.0,3.4,68,0.00,,,0.00,WUHU216HW,2013-03-27 06:55:00,
2013-03-27 02:56:00,39.8,30.1,29.83,West,270,2.0,2.9,68,0.00,,,0.00,WUHU216HW,2013-03-27 06:56:00,
2013-03-27 02:58:00,39.8,30.1,29.83,West,270,1.1,2.0,68,0.00,,,0.00,WUHU216HW,2013-03-27 06:58:00,
2013-03-27 02:59:00,39.8,30.1,29.83,West,270,2.5,2.5,68,0.00,,,0.00,WUHU216HW,2013-03-27 06:59:00,
2013-03-27 03:01:00,39.6,29.9,29.83,WSW,248,3.6,3.6,68,0.00,,,0.00,WUHU216HW,2013-03-27 07:01:00,
2013-03-27 03:02:00,39.6,29.9,29.83,WSW,248,1.8,3.6,68,0.00,,,0.00,WUHU216HW,2013-03-27 07:02:00,
2013-03-27 03:04:00,39.6,29.9,29.83,NNW,338,3.4,3.6,68,0.00,,,0.00,WUHU216HW,2013-03-27 07:04:00,
2013-03-27 03:05:00,39.6,29.9,29.83,WSW,248,1.1,3.6,68,0.00,,,0.00,WUHU216HW,2013-03-27 07:05:00,
2013-03-27 03:07:00,39.6,29.9,29.83,WSW,248,3.4,3.6,68,0.00,,,0.00,WUHU216HW,2013-03-27 07:07:00,
2013-03-27 03:08:00,39.6,29.9,29.82,SW,225,1.3,3.6,68,0.00,,,0.00,WUHU216HW,2013-03-27 07:08:00,
2013-03-27 03:10:00,39.6,29.9,29.82,WSW,248,0.7,3.6,68,0.00,,,0.00,WUHU216HW,2013-03-27 07:10:00,
2013-03-27 03:11:00,39.6,29.9,29.82,WSW,248,0.9,3.4,68,0.00,,,0.00,WUHU216HW,2013-03-27 07:11:00,
2013-03-27 03:13:00,39.6,29.9,29.82,WNW,293,2.0,3.4,68,0.00,,,0.00,WUHU216HW,2013-03-27 07:13:00,
2013-03-27 03:14:00,39.6,29.9,29.82,SSW,203,2.5,3.4,68,0.00,,,0.00,WUHU216HW,2013-03-27 07:14:00,
2013-03-27 03:16:00,39.6,29.9,29.82,WSW,248,1.1,3.4,68,0.00,,,0.00,WUHU216HW,2013-03-27 07:16:00,
2013-03-27 03:17:00,39.6,29.9,29.82,WSW,248,2.2,2.5,68,0.00,,,0.00,WUHU216HW,2013-03-27 07:17:00,
2013-03-27 03:19:00,39.4,29.7,29.82,WSW,248,4.0,4.0,68,0.00,,,0.00,WUHU216HW,2013-03-27 07:19:00,
2013-03-27 03:20:00,39.4,29.7,29.82,NW,315,2.5,4.0,68,0.00,,,0.00,WUHU216HW,2013-03-27 07:20:00,
2013-03-27 03:22:00,39.4,29.7,29.82,SSW,203,1.8,4.0,68,0.00,,,0.00,WUHU216HW,2013-03-27 07:22:00,
2013-03-27 03:23:00,39.4,29.7,29.82,WNW,293,1.8,4.0,68,0.00,,,0.00,WUHU216HW,2013-03-27 07:23:00,
2013-03-27 03:25:00,39.4,29.7,29.82,West,270,1.1,4.0,68,0.00,,,0.00,WUHU216HW,2013-03-27 07:25:00,
2013-03-27 03:26:00,39.4,29.7,29.82,West,270,1.8,4.0,68,0.00,,,0.00,WUHU216HW,2013-03-27 07:26:00,
2013-03-27 03:27:00,39.4,29.7,29.82,West,270,1.1,4.0,68,0.00,,,0.00,WUHU216HW,2013-03-27 07:27:00,
2013-03-27 03:29:00,39.4,29.7,29.82,North,0,1.1,2.5,68,0.00,,,0.00,WUHU216HW,2013-03-27 07:29:00,
2013-03-27 03:30:00,39.4,29.7,29.82,West,270,0.9,2.5,68,0.00,,,0.00,WUHU216HW,2013-03-27 07:30:00,
2013-03-27 03:32:00,39.4,29.7,29.82,WSW,248,1.6,2.7,68,0.00,,,0.00,WUHU216HW,2013-03-27 07:32:00,
2013-03-27 03:33:00,39.4,29.7,29.82,SW,225,1.1,2.7,68,0.00,,,0.00,WUHU216HW,2013-03-27 07:33:00,
2013-03-27 03:35:00,39.2,29.5,29.82,NW,315,2.0,3.4,68,0.00,,,0.00,WUHU216HW,2013-03-27 07:35:00,
2013-03-27 03:36:00,39.2,29.5,29.82,WNW,293,1.8,3.4,68,0.00,,,0.00,WUHU216HW,2013-03-27 07:36:00,
2013-03-27 03:38:00,39.2,29.5,29.82,SSW,203,1.8,3.4,68,0.00,,,0.00,WUHU216HW,2013-03-27 07:38:00,
2013-03-27 03:39:00,39.2,29.5,29.82,WSW,248,1.1,3.4,68,0.00,,,0.00,WUHU216HW,2013-03-27 07:39:00,
2013-03-27 03:41:00,39.2,29.5,29.82,NNW,338,0.4,3.4,68,0.00,,,0.00,WUHU216HW,2013-03-27 07:41:00,
2013-03-27 03:42:00,39.2,29.5,29.82,WSW,248,1.3,3.4,68,0.00,,,0.00,WUHU216HW,2013-03-27 07:42:00,
2013-03-27 03:44:00,39.2,29.5,29.82,WSW,248,2.5,2.5,68,0.00,,,0.00,WUHU216HW,2013-03-27 07:44:00,
2013-03-27 03:45:00,39.2,29.5,29.82,SSW,203,0.4,2.5,68,0.00,,,0.00,WUHU216HW,2013-03-27 07:45:00,
2013-03-27 03:47:00,39.2,29.5,29.82,WNW,293,2.7,2.7,68,0.00,,,0.00,WUHU216HW,2013-03-27 07:47:00,
2013-03-27 03:48:00,39.2,29.5,29.82,West,270,1.8,2.7,68,0.00,,,0.00,WUHU216HW,2013-03-27 07:48:00,
2013-03-27 03:50:00,39.2,29.5,29.82,WNW,293,2.5,2.7,68,0.00,,,0.00,WUHU216HW,2013-03-27 07:50:00,
2013-03-27 03:51:00,39.2,29.5,29.82,WSW,248,1.1,2.7,68,0.00,,,0.00,WUHU216HW,2013-03-27 07:51:00,
2013-03-27 03:53:00,39.2,29.5,29.82,SW,225,0.9,2.7,68,0.00,,,0.00,WUHU216HW,2013-03-27 07:53:00,
2013-03-27 03:54:00,39.1,29.4,29.82,West,270,0.4,2.7,68,0.00,,,0.00,WUHU216HW,2013-03-27 07:54:00,
2013-03-27 03:56:00,39.1,29.4,29.82,SSW,203,0.7,2.7,68,0.00,,,0.00,WUHU216HW,2013-03-27 07:56:00,
2013-03-27 03:57:00,39.1,29.4,29.82,WSW,248,1.1,2.5,68,0.00,,,0.00,WUHU216HW,2013-03-27 07:57:00,
2013-03-27 03:59:00,39.1,29.4,29.82,SW,225,0.4,4.0,68,0.00,,,0.00,WUHU216HW,2013-03-27 07:59:00,
2013-03-27 04:00:00,39.1,29.4,29.82,WSW,248,2.5,4.0,68,0.00,,,0.00,WUHU216HW,2013-03-27 08:00:00,
2013-03-27 04:02:00,39.1,29.4,29.82,WNW,293,1.6,4.0,68,0.00,,,0.00,WUHU216HW,2013-03-27 08:02:00,
2013-03-27 04:03:00,39.1,29.4,29.82,WSW,248,2.2,4.0,68,0.00,,,0.00,WUHU216HW,2013-03-27 08:03:00,
2013-03-27 04:05:00,39.1,29.4,29.82,WSW,248,0.4,4.0,68,0.00,,,0.00,WUHU216HW,2013-03-27 08:05:00,
2013-03-27 04:06:00,38.9,29.2,29.82,SW,225,1.6,4.0,68,0.00,,,0.00,WUHU216HW,2013-03-27 08:06:00,
2013-03-27 04:08:00,38.9,29.2,29.82,SW,225,1.3,2.7,68,0.00,,,0.00,WUHU216HW,2013-03-27 08:08:00,
2013-03-27 04:09:00,38.9,29.2,29.82,WSW,248,4.0,4.0,68,0.00,,,0.00,WUHU216HW,2013-03-27 08:09:00,
2013-03-27 04:11:00,38.9,29.2,29.82,SW,225,2.2,4.0,68,0.00,,,0.00,WUHU216HW,2013-03-27 08:11:00,
2013-03-27 04:12:00,38.9,29.2,29.82,WNW,293,1.3,4.0,68,0.00,,,0.00,WUHU216HW,2013-03-27 08:12:00,
2013-03-27 04:14:00,38.9,29.2,29.82,NW,315,3.1,4.0,68,0.00,,,0.00,WUHU216HW,2013-03-27 08:14:00,
2013-03-27 04:15:00,38.9,29.2,29.82,SW,225,0.4,4.0,68,0.00,,,0.00,WUHU216HW,2013-03-27 08:15:00,
2013-03-27 04:17:00,38.7,29.0,29.82,SSW,203,1.1,4.0,68,0.00,,,0.00,WUHU216HW,2013-03-27 08:17:00,
2013-03-27 04:18:00,38.7,29.0,29.83,WSW,248,2.5,4.0,68,0.00,,,0.00,WUHU216HW,2013-03-27 08:18:00,
2013-03-27 04:20:00,38.7,29.0,29.83,WSW,248,2.2,3.1,68,0.00,,,0.00,WUHU216HW,2013-03-27 08:20:00,
2013-03-27 04:21:00,38.7,29.0,29.82,WSW,248,1.1,3.1,68,0.00,,,0.00,WUHU216HW,2013-03-27 08:21:00,
2013-03-27 04:23:00,38.7,29.0,29.82,WNW,293,3.1,3.1,68,0.00,,,0.00,WUHU216HW,2013-03-27 08:23:00,
2013-03-27 04:24:00,38.7,29.0,29.83,West,270,0.4,3.1,68,0.00,,,0.00,WUHU216HW,2013-03-27 08:24:00,
2013-03-27 04:26:00,38.7,29.0,29.82,West,270,2.2,3.4,68,0.00,,,0.00,WUHU216HW,2013-03-27 08:26:00,
2013-03-27 04:27:00,38.7,29.0,29.82,WSW,248,1.1,3.4,68,0.00,,,0.00,WUHU216HW,2013-03-27 08:27:00,
2013-03-27 04:29:00,38.7,29.0,29.82,West,270,1.1,3.4,68,0.00,,,0.00,WUHU216HW,2013-03-27 08:29:00,
2013-03-27 04:30:00,38.7,29.0,29.83,SW,225,2.5,3.4,68,0.00,,,0.00,WUHU216HW,2013-03-27 08:30:00,
2013-03-27 04:32:00,38.5,28.8,29.83,SW,225,2.2,3.4,68,0.00,,,0.00,WUHU216HW,2013-03-27 08:32:00,
2013-03-27 04:33:00,38.5,28.8,29.83,WSW,248,0.4,3.4,68,0.00,,,0.00,WUHU216HW,2013-03-27 08:33:00,
2013-03-27 04:35:00,38.5,28.8,29.83,WSW,248,1.6,3.4,68,0.00,,,0.00,WUHU216HW,2013-03-27 08:35:00,
2013-03-27 04:36:00,38.5,28.8,29.83,West,270,2.5,3.4,68,0.00,,,0.00,WUHU216HW,2013-03-27 08:36:00,
2013-03-27 04:38:00,38.5,28.8,29.83,WSW,248,0.7,3.4,68,0.00,,,0.00,WUHU216HW,2013-03-27 08:38:00,
2013-03-27 04:39:00,38.5,28.8,29.83,SSW,203,1.3,3.4,68,0.00,,,0.00,WUHU216HW,2013-03-27 08:39:00,
2013-03-27 04:41:00,38.5,28.8,29.83,West,270,1.8,3.4,68,0.00,,,0.00,WUHU216HW,2013-03-27 08:41:00,
2013-03-27 04:42:00,38.5,28.8,29.83,WSW,248,2.9,3.4,68,0.00,,,0.00,WUHU216HW,2013-03-27 08:42:00,
2013-03-27 04:44:00,38.3,28.7,29.83,SW,225,1.6,3.1,68,0.00,,,0.00,WUHU216HW,2013-03-27 08:44:00,
2013-03-27 04:45:00,38.3,28.7,29.83,West,270,3.4,3.4,68,0.00,,,0.00,WUHU216HW,2013-03-27 08:45:00,
2013-03-27 04:47:00,38.3,28.7,29.83,West,270,1.6,3.4,68,0.00,,,0.00,WUHU216HW,2013-03-27 08:47:00,
2013-03-27 04:48:00,38.3,28.7,29.83,WNW,293,2.0,3.4,68,0.00,,,0.00,WUHU216HW,2013-03-27 08:48:00,
2013-03-27 04:50:00,38.3,28.7,29.83,West,270,2.0,3.4,68,0.00,,,0.00,WUHU216HW,2013-03-27 08:50:00,
2013-03-27 04:51:00,38.3,28.7,29.83,SW,225,3.1,3.4,68,0.00,,,0.00,WUHU216HW,2013-03-27 08:51:00,
2013-03-27 04:53:00,38.3,28.7,29.83,WSW,248,1.6,3.4,68,0.00,,,0.00,WUHU216HW,2013-03-27 08:53:00,
2013-03-27 04:54:00,38.2,28.5,29.83,SW,225,1.1,3.4,68,0.00,,,0.00,WUHU216HW,2013-03-27 08:54:00,
2013-03-27 04:56:00,38.2,28.2,29.83,West,270,2.7,3.1,67,0.00,,,0.00,WUHU216HW,2013-03-27 08:56:00,
2013-03-27 04:57:00,38.2,28.5,29.83,SSW,203,1.3,3.1,68,0.00,,,0.00,WUHU216HW,2013-03-27 08:57:00,
2013-03-27 04:59:00,38.2,28.2,29.83,West,270,1.3,3.1,67,0.00,,,0.00,WUHU216HW,2013-03-27 08:59:00,
2013-03-27 05:00:00,38.2,28.2,29.83,WSW,248,1.3,3.1,67,0.00,,,0.00,WUHU216HW,2013-03-27 09:00:00,
2013-03-27 05:02:00,38.2,28.2,29.83,WSW,248,1.1,2.7,67,0.00,,,0.00,WUHU216HW,2013-03-27 09:02:00,
2013-03-27 05:03:00,38.2,28.2,29.83,West,270,0.9,2.7,67,0.00,,,0.00,WUHU216HW,2013-03-27 09:03:00,
2013-03-27 05:05:00,38.2,28.2,29.83,West,270,1.8,2.7,67,0.00,,,0.00,WUHU216HW,2013-03-27 09:05:00,
2013-03-27 05:06:00,38.0,28.0,29.83,NW,315,1.8,1.8,67,0.00,,,0.00,WUHU216HW,2013-03-27 09:06:00,
2013-03-27 05:08:00,38.0,28.0,29.83,WSW,248,1.8,2.9,67,0.00,,,0.00,WUHU216HW,2013-03-27 09:08:00,
2013-03-27 05:09:00,38.0,28.0,29.83,NNW,338,0.7,2.9,67,0.00,,,0.00,WUHU216HW,2013-03-27 09:09:00,
2013-03-27 05:11:00,38.0,28.0,29.83,SW,225,2.2,2.9,67,0.00,,,0.00,WUHU216HW,2013-03-27 09:11:00,
2013-03-27 05:12:00,38.0,28.0,29.83,North,0,1.3,2.9,67,0.00,,,0.00,WUHU216HW,2013-03-27 09:12:00,
2013-03-27 05:14:00,38.0,28.0,29.83,WSW,248,1.8,2.9,67,0.00,,,0.00,WUHU216HW,2013-03-27 09:14:00,
2013-03-27 05:15:00,38.0,28.0,29.83,WSW,248,3.4,3.4,67,0.00,,,0.00,WUHU216HW,2013-03-27 09:15:00,
2013-03-27 05:17:00,38.0,28.0,29.83,West,270,1.1,4.7,67,0.00,,,0.00,WUHU216HW,2013-03-27 09:17:00,
2013-03-27 05:18:00,37.8,27.8,29.83,WSW,248,2.0,4.7,67,0.00,,,0.00,WUHU216HW,2013-03-27 09:18:00,
2013-03-27 05:20:00,37.8,27.8,29.83,WSW,248,1.1,4.7,67,0.00,,,0.00,WUHU216HW,2013-03-27 09:20:00,
2013-03-27 05:21:00,37.8,27.8,29.83,WNW,293,2.7,4.7,67,0.00,,,0.00,WUHU216HW,2013-03-27 09:21:00,
2013-03-27 05:23:00,37.8,27.8,29.84,WNW,293,1.1,4.7,67,0.00,,,0.00,WUHU216HW,2013-03-27 09:23:00,
2013-03-27 05:24:00,37.8,27.8,29.83,West,270,1.1,4.7,67,0.00,,,0.00,WUHU216HW,2013-03-27 09:24:00,
2013-03-27 05:26:00,37.8,27.8,29.84,WSW,248,2.7,2.7,67,0.00,,,0.00,WUHU216HW,2013-03-27 09:26:00,
2013-03-27 05:27:00,37.8,27.8,29.84,West,270,3.4,3.4,67,0.00,,,0.00,WUHU216HW,2013-03-27 09:27:00,
2013-03-27 05:29:00,37.8,27.8,29.84,NNW,338,1.6,3.4,67,0.00,,,0.00,WUHU216HW,2013-03-27 09:29:00,
2013-03-27 05:30:00,37.8,27.8,29.84,WNW,293,0.4,3.4,67,0.00,,,0.00,WUHU216HW,2013-03-27 09:30:00,
2013-03-27 05:32:00,37.8,27.8,29.84,NW,315,1.6,3.4,67,0.00,,,0.00,WUHU216HW,2013-03-27 09:32:00,
2013-03-27 05:33:00,37.8,27.8,29.84,SW,225,0.7,3.4,67,0.00,,,0.00,WUHU216HW,2013-03-27 09:33:00,
2013-03-27 05:35:00,37.8,27.8,29.84,SW,225,0.7,3.4,67,0.00,,,0.00,WUHU216HW,2013-03-27 09:35:00,
2013-03-27 05:36:00,37.8,27.8,29.84,SW,225,0.7,3.4,67,0.00,,,0.00,WUHU216HW,2013-03-27 09:36:00,
2013-03-27 05:38:00,37.8,27.8,29.84,West,270,1.8,1.8,67,0.00,,,0.00,WUHU216HW,2013-03-27 09:38:00,
2013-03-27 05:39:00,37.8,27.8,29.84,WSW,248,1.3,1.8,67,0.00,,,0.00,WUHU216HW,2013-03-27 09:39:00,
2013-03-27 05:40:00,37.8,27.8,29.85,WSW,248,1.3,1.8,67,0.00,,,0.00,WUHU216HW,2013-03-27 09:40:00,
2013-03-27 05:42:00,37.8,27.8,29.84,SW,225,1.1,2.0,67,0.00,,,0.00,WUHU216HW,2013-03-27 09:42:00,
2013-03-27 05:43:00,37.8,27.8,29.85,West,270,2.5,2.5,67,0.00,,,0.00,WUHU216HW,2013-03-27 09:43:00,
2013-03-27 05:45:00,37.8,27.8,29.84,SSW,203,1.3,2.5,67,0.00,,,0.00,WUHU216HW,2013-03-27 09:45:00,
2013-03-27 05:46:00,37.8,27.8,29.84,WSW,248,0.0,2.5,67,0.00,,,0.00,WUHU216HW,2013-03-27 09:46:00,
2013-03-27 05:48:00,37.8,27.8,29.85,West,270,1.1,2.5,67,0.00,,,0.00,WUHU216HW,2013-03-27 09:48:00,
2013-03-27 05:49:00,37.8,27.8,29.85,WSW,248,2.9,2.9,67,0.00,,,0.00,WUHU216HW,2013-03-27 09:49:00,
2013-03-27 05:51:00,37.8,27.8,29.85,SSW,203,1.8,2.9,67,0.00,,,0.00,WUHU216HW,2013-03-27 09:51:00,
2013-03-27 05:52:00,37.8,27.8,29.85,WNW,293,2.0,2.9,67,0.00,,,0.00,WUHU216HW,2013-03-27 09:52:00,
2013-03-27 05:54:00,37.6,27.6,29.85,WSW,248,0.4,2.9,67,0.00,,,0.00,WUHU216HW,2013-03-27 09:54:00,
2013-03-27 05:55:00,37.6,27.6,29.85,WSW,248,1.1,2.9,67,0.00,,,0.00,WUHU216HW,2013-03-27 09:55:00,
2013-03-27 05:57:00,37.6,27.6,29.85,WSW,248,0.4,2.9,67,0.00,,,0.00,WUHU216HW,2013-03-27 09:57:00,
2013-03-27 05:58:00,37.6,27.6,29.85,West,270,3.6,3.6,67,0.00,,,0.00,WUHU216HW,2013-03-27 09:58:00,
2013-03-27 06:00:00,37.6,27.6,29.85,WNW,293,0.7,3.6,67,0.00,,,0.00,WUHU216HW,2013-03-27 10:00:00,
2013-03-27 06:02:00,37.6,27.6,29.85,NNW,338,0.9,3.6,67,0.00,,,0.00,WUHU216HW,2013-03-27 10:02:00,
2013-03-27 06:03:00,37.4,27.5,29.85,WSW,248,1.1,3.6,67,0.00,,,0.00,WUHU216HW,2013-03-27 10:03:00,
2013-03-27 06:05:00,37.6,27.6,29.85,WSW,248,2.7,3.6,67,0.00,,,0.00,WUHU216HW,2013-03-27 10:05:00,
2013-03-27 06:06:00,37.4,27.5,29.85,WSW,248,1.8,3.6,67,0.00,,,0.00,WUHU216HW,2013-03-27 10:06:00,
2013-03-27 06:08:00,37.4,27.5,29.85,South,180,0.4,3.6,67,0.00,,,0.00,WUHU216HW,2013-03-27 10:08:00,
2013-03-27 06:09:00,37.4,27.5,29.85,WSW,248,4.3,4.3,67,0.00,,,0.00,WUHU216HW,2013-03-27 10:09:00,
2013-03-27 06:10:00,37.4,27.5,29.85,NNW,338,6.3,6.3,67,0.00,,,0.00,WUHU216HW,2013-03-27 10:10:00,
2013-03-27 06:12:00,37.4,27.5,29.85,SW,225,0.7,6.3,67,0.00,,,0.00,WUHU216HW,2013-03-27 10:12:00,
2013-03-27 06:13:00,37.4,27.5,29.85,SSW,203,1.8,6.3,67,0.00,,,0.00,WUHU216HW,2013-03-27 10:13:00,
2013-03-27 06:15:00,37.3,27.3,29.85,WSW,248,0.4,6.3,67,0.00,,,0.00,WUHU216HW,2013-03-27 10:15:00,
2013-03-27 06:16:00,37.3,27.3,29.85,SSW,203,3.1,6.3,67,0.00,,,0.00,WUHU216HW,2013-03-27 10:16:00,
2013-03-27 06:18:00,37.3,27.3,29.86,SSW,203,1.3,6.3,67,0.00,,,0.00,WUHU216HW,2013-03-27 10:18:00,
2013-03-27 06:19:00,37.3,27.3,29.85,WSW,248,0.9,6.3,67,0.00,,,0.00,WUHU216HW,2013-03-27 10:19:00,
2013-03-27 06:21:00,37.3,27.3,29.85,SSW,203,1.6,3.1,67,0.00,,,0.00,WUHU216HW,2013-03-27 10:21:00,
2013-03-27 06:22:00,37.3,27.3,29.85,West,270,1.8,3.1,67,0.00,,,0.00,WUHU216HW,2013-03-27 10:22:00,
2013-03-27 06:24:00,37.3,27.3,29.85,WNW,293,1.3,3.1,67,0.00,,,0.00,WUHU216HW,2013-03-27 10:24:00,
2013-03-27 06:25:00,37.3,27.3,29.85,WNW,293,4.9,4.9,67,0.00,,,0.00,WUHU216HW,2013-03-27 10:25:00,
2013-03-27 06:27:00,37.3,27.3,29.86,SW,225,1.8,4.9,67,0.00,,,0.00,WUHU216HW,2013-03-27 10:27:00,
2013-03-27 06:28:00,37.3,27.3,29.86,West,270,1.8,4.9,67,0.00,,,0.00,WUHU216HW,2013-03-27 10:28:00,
2013-03-27 06:30:00,37.3,27.3,29.86,West,270,1.1,4.9,67,0.00,,,0.00,WUHU216HW,2013-03-27 10:30:00,
2013-03-27 06:31:00,37.3,27.3,29.86,NNW,338,2.2,4.9,67,0.00,,,0.00,WUHU216HW,2013-03-27 10:31:00,
2013-03-27 06:33:00,37.3,27.3,29.86,WSW,248,2.5,4.9,67,0.00,,,0.00,WUHU216HW,2013-03-27 10:33:00,
2013-03-27 06:34:00,37.3,27.3,29.86,WSW,248,0.4,4.9,67,0.00,,,0.00,WUHU216HW,2013-03-27 10:34:00,
2013-03-27 06:36:00,37.3,27.3,29.86,WSW,248,1.6,2.5,67,0.00,,,0.00,WUHU216HW,2013-03-27 10:36:00,
2013-03-27 06:37:00,37.3,27.3,29.86,SSW,203,0.4,2.5,67,0.00,,,0.00,WUHU216HW,2013-03-27 10:37:00,
2013-03-27 06:39:00,37.3,27.3,29.86,SSW,203,1.1,2.5,67,0.00,,,0.00,WUHU216HW,2013-03-27 10:39:00,
2013-03-27 06:40:00,37.3,27.3,29.86,WSW,248,1.1,2.5,67,0.00,,,0.00,WUHU216HW,2013-03-27 10:40:00,
2013-03-27 06:42:00,37.3,27.3,29.86,SW,225,1.1,2.5,67,0.00,,,0.00,WUHU216HW,2013-03-27 10:42:00,
2013-03-27 06:43:00,37.3,27.3,29.86,SW,225,1.6,1.8,67,0.00,,,0.00,WUHU216HW,2013-03-27 10:43:00,
2013-03-27 06:45:00,37.3,27.3,29.87,WSW,248,3.4,3.4,67,0.00,,,0.00,WUHU216HW,2013-03-27 10:45:00,
2013-03-27 06:46:00,37.1,27.2,29.87,WSW,248,0.9,3.4,67,0.00,,,0.00,WUHU216HW,2013-03-27 10:46:00,
2013-03-27 06:48:00,37.1,27.2,29.87,West,270,1.3,3.4,67,0.00,,,0.00,WUHU216HW,2013-03-27 10:48:00,
2013-03-27 06:49:00,37.1,27.2,29.87,West,270,1.1,3.4,67,0.00,,,0.00,WUHU216HW,2013-03-27 10:49:00,
2013-03-27 06:51:00,37.1,27.2,29.87,West,270,0.4,3.4,67,0.00,,,0.00,WUHU216HW,2013-03-27 10:51:00,
2013-03-27 06:52:00,37.1,27.2,29.87,SW,225,1.6,3.4,67,0.00,,,0.00,WUHU216HW,2013-03-27 10:52:00,
2013-03-27 06:53:00,37.1,27.2,29.87,WSW,248,1.8,3.4,67,0.00,,,0.00,WUHU216HW,2013-03-27 10:53:00,
2013-03-27 06:55:00,37.1,27.2,29.87,SW,225,0.7,1.8,67,0.00,,,0.00,WUHU216HW,2013-03-27 10:55:00,
2013-03-27 06:56:00,37.1,27.2,29.87,West,270,1.3,1.8,67,0.00,,,0.00,WUHU216HW,2013-03-27 10:56:00,
2013-03-27 06:58:00,37.1,27.2,29.87,SW,225,0.7,1.8,67,0.00,,,0.00,WUHU216HW,2013-03-27 10:58:00,
2013-03-27 07:00:00,37.1,27.2,29.87,SW,225,1.1,1.8,67,0.00,,,0.00,WUHU216HW,2013-03-27 11:00:00,
2013-03-27 07:01:00,37.1,27.2,29.87,West,270,2.0,2.0,67,0.00,,,0.00,WUHU216HW,2013-03-27 11:01:00,
2013-03-27 07:03:00,37.1,27.2,29.87,SW,225,1.6,2.0,67,0.00,,,0.00,WUHU216HW,2013-03-27 11:03:00,
2013-03-27 07:04:00,37.1,27.2,29.87,West,270,1.8,2.0,67,0.00,,,0.00,WUHU216HW,2013-03-27 11:04:00,
2013-03-27 07:06:00,37.1,27.2,29.87,WSW,248,1.6,2.0,67,0.00,,,0.00,WUHU216HW,2013-03-27 11:06:00,
2013-03-27 07:07:00,37.1,27.2,29.87,West,270,1.3,2.0,67,0.00,,,0.00,WUHU216HW,2013-03-27 11:07:00,
2013-03-27 07:09:00,37.1,27.2,29.87,SW,225,2.0,2.7,67,0.00,,,0.00,WUHU216HW,2013-03-27 11:09:00,
2013-03-27 07:10:00,37.1,27.2,29.87,WSW,248,1.6,2.7,67,0.00,,,0.00,WUHU216HW,2013-03-27 11:10:00,
2013-03-27 07:12:00,37.1,27.2,29.87,WSW,248,2.5,2.7,67,0.00,,,0.00,WUHU216HW,2013-03-27 11:12:00,
2013-03-27 07:13:00,37.1,27.2,29.87,WSW,248,0.7,2.7,67,0.00,,,0.00,WUHU216HW,2013-03-27 11:13:00,
2013-03-27 07:15:00,37.1,27.2,29.88,SW,225,1.8,2.7,67,0.00,,,0.00,WUHU216HW,2013-03-27 11:15:00,
2013-03-27 07:16:00,37.1,27.2,29.87,SW,225,1.1,2.7,67,0.00,,,0.00,WUHU216HW,2013-03-27 11:16:00,
2013-03-27 07:18:00,37.1,27.2,29.87,West,270,3.4,3.4,67,0.00,,,0.00,WUHU216HW,2013-03-27 11:18:00,
2013-03-27 07:19:00,37.1,27.2,29.88,WSW,248,2.7,3.4,67,0.00,,,0.00,WUHU216HW,2013-03-27 11:19:00,
2013-03-27 07:21:00,37.1,27.2,29.87,SW,225,2.9,3.4,67,0.00,,,0.00,WUHU216HW,2013-03-27 11:21:00,
2013-03-27 07:22:00,37.1,27.2,29.88,WSW,248,3.6,3.6,67,0.00,,,0.00,WUHU216HW,2013-03-27 11:22:00,
2013-03-27 07:24:00,37.1,27.2,29.88,West,270,1.1,3.6,67,0.00,,,0.00,WUHU216HW,2013-03-27 11:24:00,
2013-03-27 07:25:00,37.1,27.2,29.88,SSW,203,1.1,3.6,67,0.00,,,0.00,WUHU216HW,2013-03-27 11:25:00,
2013-03-27 07:26:00,37.1,27.2,29.88,SW,225,0.9,3.6,67,0.00,,,0.00,WUHU216HW,2013-03-27 11:26:00,
2013-03-27 07:28:00,37.1,27.2,29.88,SW,225,2.0,3.6,67,0.00,,,0.00,WUHU216HW,2013-03-27 11:28:00,
2013-03-27 07:29:00,37.1,27.2,29.88,West,270,0.9,3.6,67,0.00,,,0.00,WUHU216HW,2013-03-27 11:29:00,
2013-03-27 07:31:00,37.1,27.2,29.88,SW,225,0.7,3.6,67,0.00,,,0.00,WUHU216HW,2013-03-27 11:31:00,
2013-03-27 07:32:00,37.1,27.2,29.88,West,270,4.0,4.0,67,0.00,,,0.00,WUHU216HW,2013-03-27 11:32:00,
2013-03-27 07:34:00,37.1,27.2,29.88,SSW,203,2.7,4.0,67,0.00,,,0.00,WUHU216HW,2013-03-27 11:34:00,
2013-03-27 07:35:00,37.1,27.2,29.88,WSW,248,1.1,4.0,67,0.00,,,0.00,WUHU216HW,2013-03-27 11:35:00,
2013-03-27 07:37:00,37.1,27.2,29.88,West,270,1.1,4.0,67,0.00,,,0.00,WUHU216HW,2013-03-27 11:37:00,
2013-03-27 07:38:00,37.3,27.3,29.88,West,270,2.5,4.0,67,0.00,,,0.00,WUHU216HW,2013-03-27 11:38:00,
2013-03-27 07:40:00,37.3,27.3,29.88,West,270,1.8,4.0,67,0.00,,,0.00,WUHU216HW,2013-03-27 11:40:00,
2013-03-27 07:41:00,37.4,27.5,29.88,West,270,2.5,4.0,67,0.00,,,0.00,WUHU216HW,2013-03-27 11:41:00,
2013-03-27 07:43:00,37.4,27.5,29.88,WSW,248,1.1,2.7,67,0.00,,,0.00,WUHU216HW,2013-03-27 11:43:00,
2013-03-27 07:44:00,37.4,27.5,29.88,West,270,2.0,2.5,67,0.00,,,0.00,WUHU216HW,2013-03-27 11:44:00,
2013-03-27 07:46:00,37.4,27.5,29.88,NW,315,0.9,2.5,67,0.00,,,0.00,WUHU216HW,2013-03-27 11:46:00,
2013-03-27 07:47:00,37.6,27.6,29.88,SSW,203,1.1,2.5,67,0.00,,,0.00,WUHU216HW,2013-03-27 11:47:00,
2013-03-27 07:49:00,37.6,27.6,29.88,WSW,248,3.1,3.1,67,0.00,,,0.00,WUHU216HW,2013-03-27 11:49:00,
2013-03-27 07:50:00,37.6,27.6,29.88,WNW,293,0.7,3.1,67,0.00,,,0.00,WUHU216HW,2013-03-27 11:50:00,
2013-03-27 07:52:00,37.8,27.8,29.88,WSW,248,1.6,3.1,67,0.00,,,0.00,WUHU216HW,2013-03-27 11:52:00,
2013-03-27 07:53:00,37.8,27.8,29.88,West,270,0.9,3.1,67,0.00,,,0.00,WUHU216HW,2013-03-27 11:53:00,
2013-03-27 07:55:00,37.8,27.8,29.89,WSW,248,1.1,3.1,67,0.00,,,0.00,WUHU216HW,2013-03-27 11:55:00,
2013-03-27 07:56:00,38.0,28.0,29.89,NNW,338,1.6,3.1,67,0.00,,,0.00,WUHU216HW,2013-03-27 11:56:00,
2013-03-27 07:58:00,38.2,28.2,29.89,WSW,248,1.1,3.1,67,0.00,,,0.00,WUHU216HW,2013-03-27 11:58:00,
2013-03-27 08:00:00,38.2,28.2,29.89,NW,315,4.0,4.0,67,0.00,,,0.00,WUHU216HW,2013-03-27 12:00:00,
2013-03-27 08:01:00,38.2,28.2,29.88,West,270,3.4,4.0,67,0.00,,,0.00,WUHU216HW,2013-03-27 12:01:00,
2013-03-27 08:03:00,38.5,28.4,29.89,SW,225,1.8,4.0,67,0.00,,,0.00,WUHU216HW,2013-03-27 12:03:00,
2013-03-27 08:04:00,38.5,28.4,29.89,NE,45,3.4,4.0,67,0.00,,,0.00,WUHU216HW,2013-03-27 12:04:00,
2013-03-27 08:06:00,38.5,28.4,29.89,West,270,1.1,4.0,67,0.00,,,0.00,WUHU216HW,2013-03-27 12:06:00,
2013-03-27 08:07:00,38.7,28.6,29.88,WSW,248,2.9,4.0,67,0.00,,,0.00,WUHU216HW,2013-03-27 12:07:00,
2013-03-27 08:08:00,38.7,28.6,29.89,SSW,203,2.2,4.0,67,0.00,,,0.00,WUHU216HW,2013-03-27 12:08:00,
2013-03-27 08:10:00,38.9,28.8,29.89,West,270,5.8,5.8,67,0.00,,,0.00,WUHU216HW,2013-03-27 12:10:00,
2013-03-27 08:11:00,38.9,28.8,29.89,SSW,203,3.8,5.8,67,0.00,,,0.00,WUHU216HW,2013-03-27 12:11:00,
2013-03-27 08:13:00,38.9,28.8,29.89,SSW,203,2.5,5.8,67,0.00,,,0.00,WUHU216HW,2013-03-27 12:13:00,
2013-03-27 08:14:00,39.1,29.0,29.89,WSW,248,0.4,5.8,67,0.00,,,0.00,WUHU216HW,2013-03-27 12:14:00,
2013-03-27 08:16:00,39.2,29.1,29.89,SW,225,1.1,5.8,67,0.00,,,0.00,WUHU216HW,2013-03-27 12:16:00,
2013-03-27 08:17:00,39.2,29.1,29.89,WNW,293,2.2,5.8,67,0.00,,,0.00,WUHU216HW,2013-03-27 12:17:00,
2013-03-27 08:19:00,39.4,29.3,29.89,SW,225,2.2,5.8,67,0.00,,,0.00,WUHU216HW,2013-03-27 12:19:00,
2013-03-27 08:20:00,39.6,29.4,29.89,WNW,293,2.7,3.8,67,0.00,,,0.00,WUHU216HW,2013-03-27 12:20:00,
2013-03-27 08:22:00,39.8,29.6,29.89,WSW,248,2.7,3.4,67,0.00,,,0.00,WUHU216HW,2013-03-27 12:22:00,
2013-03-27 08:23:00,39.8,29.6,29.89,WNW,293,3.6,3.6,67,0.00,,,0.00,WUHU216HW,2013-03-27 12:23:00,
2013-03-27 08:25:00,40.0,29.8,29.89,NW,315,4.0,4.0,67,0.00,,,0.00,WUHU216HW,2013-03-27 12:25:00,
2013-03-27 08:26:00,40.0,29.8,29.89,West,270,1.3,4.0,67,0.00,,,0.00,WUHU216HW,2013-03-27 12:26:00,
2013-03-27 08:28:00,40.0,29.8,29.89,SW,225,4.7,4.7,67,0.00,,,0.00,WUHU216HW,2013-03-27 12:28:00,
2013-03-27 08:29:00,40.0,29.8,29.89,SW,225,2.0,4.7,67,0.00,,,0.00,WUHU216HW,2013-03-27 12:29:00,
2013-03-27 08:31:00,40.0,29.8,29.89,WSW,248,2.5,4.7,67,0.00,,,0.00,WUHU216HW,2013-03-27 12:31:00,
2013-03-27 08:32:00,40.0,29.8,29.90,SSW,203,1.6,4.7,67,0.00,,,0.00,WUHU216HW,2013-03-27 12:32:00,
2013-03-27 08:34:00,40.1,30.0,29.89,SW,225,2.5,4.7,67,0.00,,,0.00,WUHU216HW,2013-03-27 12:34:00,
2013-03-27 08:35:00,40.3,30.2,29.90,SW,225,3.1,4.7,67,0.00,,,0.00,WUHU216HW,2013-03-27 12:35:00,
2013-03-27 08:37:00,40.3,30.2,29.89,NW,315,3.8,4.7,67,0.00,,,0.00,WUHU216HW,2013-03-27 12:37:00,
2013-03-27 08:38:00,40.3,30.2,29.90,SW,225,1.8,4.3,67,0.00,,,0.00,WUHU216HW,2013-03-27 12:38:00,
2013-03-27 08:40:00,40.5,30.3,29.89,SSW,203,1.6,4.3,67,0.00,,,0.00,WUHU216HW,2013-03-27 12:40:00,
2013-03-27 08:41:00,40.5,30.3,29.89,WSW,248,4.3,4.3,67,0.00,,,0.00,WUHU216HW,2013-03-27 12:41:00,
2013-03-27 08:42:00,40.5,30.3,29.89,SW,225,4.7,4.7,67,0.00,,,0.00,WUHU216HW,2013-03-27 12:42:00,
2013-03-27 08:44:00,40.7,30.5,29.89,West,270,4.3,4.9,67,0.00,,,0.00,WUHU216HW,2013-03-27 12:44:00,
2013-03-27 08:45:00,40.7,30.5,29.89,SSW,203,1.8,4.9,67,0.00,,,0.00,WUHU216HW,2013-03-27 12:45:00,
2013-03-27 08:47:00,40.7,30.5,29.89,WSW,248,2.5,4.9,67,0.00,,,0.00,WUHU216HW,2013-03-27 12:47:00,
2013-03-27 08:48:00,40.7,30.5,29.89,WNW,293,3.4,4.9,67,0.00,,,0.00,WUHU216HW,2013-03-27 12:48:00,
2013-03-27 08:50:00,40.9,30.7,29.89,West,270,1.3,4.9,67,0.00,,,0.00,WUHU216HW,2013-03-27 12:50:00,
2013-03-27 08:51:00,40.9,30.7,29.89,NW,315,7.6,7.6,67,0.00,,,0.00,WUHU216HW,2013-03-27 12:51:00,
2013-03-27 08:53:00,41.0,30.9,29.89,WNW,293,2.5,7.6,67,0.00,,,0.00,WUHU216HW,2013-03-27 12:53:00,
2013-03-27 08:54:00,41.0,30.9,29.90,West,270,7.6,7.6,67,0.00,,,0.00,WUHU216HW,2013-03-27 12:54:00,
2013-03-27 08:56:00,41.2,31.1,29.89,West,270,2.5,7.6,67,0.00,,,0.00,WUHU216HW,2013-03-27 12:56:00,
2013-03-27 08:57:00,41.2,31.1,29.90,NW,315,2.5,7.6,67,0.00,,,0.00,WUHU216HW,2013-03-27 12:57:00,
2013-03-27 08:59:00,41.4,31.2,29.90,West,270,4.5,7.6,67,0.00,,,0.00,WUHU216HW,2013-03-27 12:59:00,
2013-03-27 09:01:00,41.6,31.4,29.90,WSW,248,3.8,7.6,67,0.00,,,0.00,WUHU216HW,2013-03-27 13:01:00,
2013-03-27 09:02:00,41.6,31.1,29.89,NW,315,4.7,7.6,66,0.00,,,0.00,WUHU216HW,2013-03-27 13:02:00,
2013-03-27 09:04:00,41.8,31.2,29.90,West,270,4.9,7.6,66,0.00,,,0.00,WUHU216HW,2013-03-27 13:04:00,
2013-03-27 09:05:00,41.8,31.2,29.90,WNW,293,2.5,6.0,66,0.00,,,0.00,WUHU216HW,2013-03-27 13:05:00,
2013-03-27 09:07:00,41.9,31.4,29.90,West,270,3.4,6.0,66,0.00,,,0.00,WUHU216HW,2013-03-27 13:07:00,
2013-03-27 09:08:00,42.1,31.6,29.90,NW,315,5.4,6.0,66,0.00,,,0.00,WUHU216HW,2013-03-27 13:08:00,
2013-03-27 09:10:00,42.1,31.1,29.90,SW,225,1.6,5.4,65,0.00,,,0.00,WUHU216HW,2013-03-27 13:10:00,
2013-03-27 09:11:00,42.1,31.6,29.90,NW,315,8.5,8.5,66,0.00,,,0.00,WUHU216HW,2013-03-27 13:11:00,
2013-03-27 09:13:00,42.5,31.5,29.90,NW,315,6.9,8.5,65,0.00,,,0.00,WUHU216HW,2013-03-27 13:13:00,
2013-03-27 09:14:00,42.5,31.2,29.90,NW,315,12.8,12.8,64,0.00,,,0.00,WUHU216HW,2013-03-27 13:14:00,
2013-03-27 09:16:00,42.7,31.3,29.90,West,270,6.7,12.8,64,0.00,,,0.00,WUHU216HW,2013-03-27 13:16:00,
2013-03-27 09:17:00,42.7,31.3,29.89,SW,225,1.1,12.8,64,0.00,,,0.00,WUHU216HW,2013-03-27 13:17:00,
2013-03-27 09:19:00,42.8,31.5,29.89,WSW,248,2.2,12.8,64,0.00,,,0.00,WUHU216HW,2013-03-27 13:19:00,
2013-03-27 09:20:00,42.8,31.5,29.89,NW,315,9.8,12.8,64,0.00,,,0.00,WUHU216HW,2013-03-27 13:20:00,
2013-03-27 09:22:00,43.0,31.7,29.89,WNW,293,8.5,12.8,64,0.00,,,0.00,WUHU216HW,2013-03-27 13:22:00,
2013-03-27 09:23:00,43.0,31.2,29.89,WNW,293,4.7,12.8,63,0.00,,,0.00,WUHU216HW,2013-03-27 13:23:00,
2013-03-27 09:25:00,43.2,31.4,29.89,NNW,338,2.2,10.5,63,0.00,,,0.00,WUHU216HW,2013-03-27 13:25:00,
2013-03-27 09:26:00,43.2,31.4,29.89,North,0,5.8,10.5,63,0.00,,,0.00,WUHU216HW,2013-03-27 13:26:00,
2013-03-27 09:28:00,43.4,31.6,29.89,NW,315,4.7,10.5,63,0.00,,,0.00,WUHU216HW,2013-03-27 13:28:00,
2013-03-27 09:29:00,43.6,31.8,29.89,WSW,248,4.3,10.5,63,0.00,,,0.00,WUHU216HW,2013-03-27 13:29:00,
2013-03-27 09:30:00,43.6,31.8,29.89,NW,315,15.4,15.4,63,0.00,,,0.00,WUHU216HW,2013-03-27 13:30:00,
2013-03-27 09:32:00,43.6,31.8,29.89,WSW,248,7.8,15.4,63,0.00,,,0.00,WUHU216HW,2013-03-27 13:32:00,
2013-03-27 09:33:00,43.7,31.6,29.89,NW,315,7.4,15.4,62,0.00,,,0.00,WUHU216HW,2013-03-27 13:33:00,
2013-03-27 09:35:00,43.9,31.8,29.89,WSW,248,5.6,15.4,62,0.00,,,0.00,WUHU216HW,2013-03-27 13:35:00,
2013-03-27 09:36:00,43.9,31.8,29.89,NW,315,6.5,15.4,62,0.00,,,0.00,WUHU216HW,2013-03-27 13:36:00,
2013-03-27 09:38:00,44.1,32.0,29.89,South,180,2.5,15.4,62,0.00,,,0.00,WUHU216HW,2013-03-27 13:38:00,
2013-03-27 09:39:00,44.3,32.0,29.89,NNW,338,2.7,15.4,62,0.00,,,0.00,WUHU216HW,2013-03-27 13:39:00,
2013-03-27 09:41:00,44.3,32.0,29.89,WSW,248,4.9,7.8,62,0.00,,,0.00,WUHU216HW,2013-03-27 13:41:00,
2013-03-27 09:42:00,44.3,32.0,29.89,WNW,293,4.7,7.4,62,0.00,,,0.00,WUHU216HW,2013-03-27 13:42:00,
2013-03-27 09:44:00,44.5,32.2,29.89,WNW,293,3.1,6.5,62,0.00,,,0.00,WUHU216HW,2013-03-27 13:44:00,
2013-03-27 09:45:00,44.5,32.2,29.89,SSE,158,3.1,6.5,62,0.00,,,0.00,WUHU216HW,2013-03-27 13:45:00,
2013-03-27 09:47:00,44.6,32.0,29.89,NNW,338,5.8,5.8,61,0.00,,,0.00,WUHU216HW,2013-03-27 13:47:00,
2013-03-27 09:48:00,44.6,32.0,29.89,NNW,338,2.5,5.8,61,0.00,,,0.00,WUHU216HW,2013-03-27 13:48:00,
2013-03-27 09:50:00,44.8,31.9,29.89,NW,315,8.5,8.5,60,0.00,,,0.00,WUHU216HW,2013-03-27 13:50:00,
2013-03-27 09:51:00,45.0,32.1,29.90,West,270,2.9,8.5,60,0.00,,,0.00,WUHU216HW,2013-03-27 13:51:00,
2013-03-27 09:53:00,45.0,31.6,29.89,NW,315,9.2,10.1,59,0.00,,,0.00,WUHU216HW,2013-03-27 13:53:00,
2013-03-27 09:54:00,45.0,31.6,29.89,WNW,293,4.3,10.1,59,0.00,,,0.00,WUHU216HW,2013-03-27 13:54:00,
2013-03-27 09:56:00,45.2,32.1,29.89,NW,315,6.3,10.1,60,0.00,,,0.00,WUHU216HW,2013-03-27 13:56:00,
2013-03-27 09:57:00,45.0,31.6,29.89,NW,315,7.6,10.1,59,0.00,,,0.00,WUHU216HW,2013-03-27 13:57:00,
2013-03-27 09:59:00,45.2,31.2,29.89,NW,315,11.4,11.6,58,0.00,,,0.00,WUHU216HW,2013-03-27 13:59:00,
2013-03-27 10:01:00,45.2,31.7,29.89,WNW,293,6.5,11.6,59,0.00,,,0.00,WUHU216HW,2013-03-27 14:01:00,
2013-03-27 10:02:00,45.2,31.7,29.89,West,270,4.5,11.6,59,0.00,,,0.00,WUHU216HW,2013-03-27 14:02:00,
2013-03-27 10:04:00,45.2,31.2,29.89,SW,225,4.7,11.6,58,0.00,,,0.00,WUHU216HW,2013-03-27 14:04:00,
2013-03-27 10:05:00,45.4,31.4,29.89,SW,225,4.7,11.6,58,0.00,,,0.00,WUHU216HW,2013-03-27 14:05:00,
2013-03-27 10:07:00,45.4,31.9,29.89,WSW,248,4.9,11.6,59,0.00,,,0.00,WUHU216HW,2013-03-27 14:07:00,
2013-03-27 10:08:00,45.4,31.9,29.89,NNW,338,6.3,11.4,59,0.00,,,0.00,WUHU216HW,2013-03-27 14:08:00,
2013-03-27 10:10:00,45.4,31.9,29.90,WNW,293,4.7,6.5,59,0.00,,,0.00,WUHU216HW,2013-03-27 14:10:00,
2013-03-27 10:11:00,45.5,32.0,29.90,North,0,3.1,6.3,59,0.00,,,0.00,WUHU216HW,2013-03-27 14:11:00,
2013-03-27 10:13:00,45.7,32.2,29.89,WNW,293,4.7,6.9,59,0.00,,,0.00,WUHU216HW,2013-03-27 14:13:00,
2013-03-27 10:14:00,45.7,32.2,29.89,NNW,338,4.0,6.9,59,0.00,,,0.00,WUHU216HW,2013-03-27 14:14:00,
2013-03-27 10:15:00,45.7,32.2,29.89,WNW,293,6.9,6.9,59,0.00,,,0.00,WUHU216HW,2013-03-27 14:15:00,
2013-03-27 10:17:00,45.7,32.2,29.89,NNW,338,6.7,6.9,59,0.00,,,0.00,WUHU216HW,2013-03-27 14:17:00,
2013-03-27 10:18:00,45.7,32.2,29.89,WNW,293,1.8,6.9,59,0.00,,,0.00,WUHU216HW,2013-03-27 14:18:00,
2013-03-27 10:20:00,45.9,32.0,29.89,WNW,293,2.5,6.9,58,0.00,,,0.00,WUHU216HW,2013-03-27 14:20:00,
2013-03-27 10:21:00,46.1,32.5,29.89,WSW,248,5.4,6.9,59,0.00,,,0.00,WUHU216HW,2013-03-27 14:21:00,
2013-03-27 10:23:00,46.1,32.0,29.89,WNW,293,1.8,8.3,58,0.00,,,0.00,WUHU216HW,2013-03-27 14:23:00,
2013-03-27 10:24:00,46.1,32.0,29.89,WNW,293,2.9,8.3,58,0.00,,,0.00,WUHU216HW,2013-03-27 14:24:00,
2013-03-27 10:26:00,46.3,32.2,29.89,WNW,293,4.0,8.3,58,0.00,,,0.00,WUHU216HW,2013-03-27 14:26:00,
2013-03-27 10:27:00,46.4,32.4,29.89,NW,315,7.8,8.3,58,0.00,,,0.00,WUHU216HW,2013-03-27 14:27:00,
2013-03-27 10:29:00,46.4,32.4,29.89,SSW,203,3.4,8.3,58,0.00,,,0.00,WUHU216HW,2013-03-27 14:29:00,
2013-03-27 10:30:00,46.4,32.4,29.89,NW,315,8.3,8.3,58,0.00,,,0.00,WUHU216HW,2013-03-27 14:30:00,
2013-03-27 10:32:00,46.4,32.0,29.89,NW,315,6.3,8.3,57,0.00,,,0.00,WUHU216HW,2013-03-27 14:32:00,
2013-03-27 10:33:00,46.4,32.0,29.89,WNW,293,5.6,8.3,57,0.00,,,0.00,WUHU216HW,2013-03-27 14:33:00,
2013-03-27 10:35:00,46.6,32.1,29.89,WSW,248,3.6,8.3,57,0.00,,,0.00,WUHU216HW,2013-03-27 14:35:00,
2013-03-27 10:36:00,46.6,32.1,29.89,WNW,293,3.8,8.3,57,0.00,,,0.00,WUHU216HW,2013-03-27 14:36:00,
2013-03-27 10:38:00,46.8,32.3,29.89,SSW,203,3.8,8.3,57,0.00,,,0.00,WUHU216HW,2013-03-27 14:38:00,
2013-03-27 10:39:00,46.8,32.3,29.89,SW,225,2.5,8.3,57,0.00,,,0.00,WUHU216HW,2013-03-27 14:39:00,
2013-03-27 10:41:00,47.0,33.4,29.89,West,270,5.6,6.3,59,0.00,,,0.00,WUHU216HW,2013-03-27 14:41:00,
2013-03-27 10:42:00,47.0,33.4,29.89,SSW,203,2.5,5.6,59,0.00,,,0.00,WUHU216HW,2013-03-27 14:42:00,
2013-03-27 10:44:00,47.2,32.7,29.89,NW,315,6.7,6.7,57,0.00,,,0.00,WUHU216HW,2013-03-27 14:44:00,
2013-03-27 10:45:00,47.3,33.3,29.89,SW,225,7.8,7.8,58,0.00,,,0.00,WUHU216HW,2013-03-27 14:45:00,
2013-03-27 10:47:00,47.3,32.4,29.89,NNW,338,4.5,9.4,56,0.00,,,0.00,WUHU216HW,2013-03-27 14:47:00,
2013-03-27 10:48:00,47.5,32.6,29.89,West,270,8.5,9.4,56,0.00,,,0.00,WUHU216HW,2013-03-27 14:48:00,
2013-03-27 10:50:00,47.3,32.9,29.89,WNW,293,9.6,9.6,57,0.00,,,0.00,WUHU216HW,2013-03-27 14:50:00,
2013-03-27 10:51:00,47.5,32.6,29.89,WNW,293,5.1,9.6,56,0.00,,,0.00,WUHU216HW,2013-03-27 14:51:00,
2013-03-27 10:52:00,47.5,33.0,29.89,NNW,338,4.0,9.6,57,0.00,,,0.00,WUHU216HW,2013-03-27 14:52:00,
2013-03-27 10:54:00,47.5,32.6,29.89,West,270,2.5,10.5,56,0.00,,,0.00,WUHU216HW,2013-03-27 14:54:00,
2013-03-27 10:55:00,47.5,32.6,29.89,WNW,293,3.4,10.5,56,0.00,,,0.00,WUHU216HW,2013-03-27 14:55:00,
2013-03-27 10:57:00,47.7,32.7,29.89,WNW,293,2.7,10.5,56,0.00,,,0.00,WUHU216HW,2013-03-27 14:57:00,
2013-03-27 10:58:00,47.7,32.7,29.89,WNW,293,1.6,10.5,56,0.00,,,0.00,WUHU216HW,2013-03-27 14:58:00,
2013-03-27 11:01:00,47.9,32.9,29.89,South,180,4.3,10.5,56,0.00,,,0.00,WUHU216HW,2013-03-27 15:01:00,
2013-03-27 11:02:00,47.9,32.9,29.89,WNW,293,5.4,10.5,56,0.00,,,0.00,WUHU216HW,2013-03-27 15:02:00,
2013-03-27 11:04:00,48.1,33.0,29.88,SSW,203,4.7,6.3,56,0.00,,,0.00,WUHU216HW,2013-03-27 15:04:00,
2013-03-27 11:05:00,48.1,32.6,29.89,NW,315,7.4,7.4,55,0.00,,,0.00,WUHU216HW,2013-03-27 15:05:00,
2013-03-27 11:06:00,48.2,33.2,29.88,West,270,2.9,7.4,56,0.00,,,0.00,WUHU216HW,2013-03-27 15:06:00,
2013-03-27 11:08:00,48.4,33.4,29.89,NW,315,9.2,9.2,56,0.00,,,0.00,WUHU216HW,2013-03-27 15:08:00,
2013-03-27 11:09:00,48.4,33.0,29.89,West,270,8.3,9.2,55,0.00,,,0.00,WUHU216HW,2013-03-27 15:09:00,
2013-03-27 11:11:00,48.6,33.1,29.89,NNW,338,1.1,9.2,55,0.00,,,0.00,WUHU216HW,2013-03-27 15:11:00,
2013-03-27 11:12:00,48.6,32.7,29.88,SW,225,9.8,9.8,54,0.00,,,0.00,WUHU216HW,2013-03-27 15:12:00,
2013-03-27 11:14:00,48.6,32.1,29.89,WNW,293,6.3,9.8,53,0.00,,,0.00,WUHU216HW,2013-03-27 15:14:00,
2013-03-27 11:15:00,48.6,32.1,29.88,SW,225,2.5,9.8,53,0.00,,,0.00,WUHU216HW,2013-03-27 15:15:00,
2013-03-27 11:17:00,48.6,32.1,29.88,NW,315,6.9,9.8,53,0.00,,,0.00,WUHU216HW,2013-03-27 15:17:00,
2013-03-27 11:18:00,48.6,32.7,29.88,NNW,338,3.4,9.8,54,0.00,,,0.00,WUHU216HW,2013-03-27 15:18:00,
2013-03-27 11:20:00,48.6,32.7,29.88,WNW,293,9.4,9.8,54,0.00,,,0.00,WUHU216HW,2013-03-27 15:20:00,
2013-03-27 11:21:00,48.6,32.1,29.88,WSW,248,7.8,9.8,53,0.00,,,0.00,WUHU216HW,2013-03-27 15:21:00,
2013-03-27 11:23:00,48.6,32.1,29.88,WNW,293,5.8,9.4,53,0.00,,,0.00,WUHU216HW,2013-03-27 15:23:00,
2013-03-27 11:24:00,48.6,32.1,29.88,NNW,338,4.7,9.4,53,0.00,,,0.00,WUHU216HW,2013-03-27 15:24:00,
2013-03-27 11:26:00,48.8,32.3,29.88,WNW,293,4.0,9.4,53,0.00,,,0.00,WUHU216HW,2013-03-27 15:26:00,
2013-03-27 11:27:00,48.8,32.3,29.88,WSW,248,1.8,9.4,53,0.00,,,0.00,WUHU216HW,2013-03-27 15:27:00,
2013-03-27 11:29:00,49.0,32.9,29.88,WNW,293,2.5,9.4,54,0.00,,,0.00,WUHU216HW,2013-03-27 15:29:00,
2013-03-27 11:30:00,49.0,32.9,29.88,WNW,293,5.4,7.8,54,0.00,,,0.00,WUHU216HW,2013-03-27 15:30:00,
2013-03-27 11:32:00,49.1,32.7,29.88,WNW,293,3.1,5.8,53,0.00,,,0.00,WUHU216HW,2013-03-27 15:32:00,
2013-03-27 11:33:00,49.3,32.9,29.88,NW,315,7.4,7.4,53,0.00,,,0.00,WUHU216HW,2013-03-27 15:33:00,
2013-03-27 11:35:00,49.3,32.0,29.88,WNW,293,7.6,8.5,51,0.00,,,0.00,WUHU216HW,2013-03-27 15:35:00,
2013-03-27 11:36:00,49.3,32.4,29.88,NW,315,5.6,8.5,52,0.00,,,0.00,WUHU216HW,2013-03-27 15:36:00,
2013-03-27 11:38:00,49.5,32.1,29.88,WNW,293,6.0,11.6,51,0.00,,,0.00,WUHU216HW,2013-03-27 15:38:00,
2013-03-27 11:39:00,49.5,32.1,29.88,NW,315,4.5,11.6,51,0.00,,,0.00,WUHU216HW,2013-03-27 15:39:00,
2013-03-27 11:40:00,49.7,32.8,29.88,NW,315,4.0,11.6,52,0.00,,,0.00,WUHU216HW,2013-03-27 15:40:00,
2013-03-27 11:42:00,49.7,32.8,29.87,WSW,248,3.8,11.6,52,0.00,,,0.00,WUHU216HW,2013-03-27 15:42:00,
2013-03-27 11:43:00,49.7,32.8,29.87,SW,225,4.7,11.6,52,0.00,,,0.00,WUHU216HW,2013-03-27 15:43:00,
2013-03-27 11:45:00,49.7,32.8,29.87,NW,315,6.3,11.6,52,0.00,,,0.00,WUHU216HW,2013-03-27 15:45:00,
2013-03-27 11:46:00,49.5,32.1,29.88,NNW,338,8.1,8.1,51,0.00,,,0.00,WUHU216HW,2013-03-27 15:46:00,
2013-03-27 11:48:00,49.3,32.0,29.88,NW,315,7.8,8.1,51,0.00,,,0.00,WUHU216HW,2013-03-27 15:48:00,
2013-03-27 11:49:00,49.3,32.0,29.88,NW,315,3.8,8.1,51,0.00,,,0.00,WUHU216HW,2013-03-27 15:49:00,
2013-03-27 11:51:00,49.3,32.4,29.87,WSW,248,5.6,8.1,52,0.00,,,0.00,WUHU216HW,2013-03-27 15:51:00,
2013-03-27 11:52:00,49.3,32.0,29.87,North,0,5.4,8.1,51,0.00,,,0.00,WUHU216HW,2013-03-27 15:52:00,
2013-03-27 11:54:00,49.5,32.6,29.87,SW,225,1.8,8.1,52,0.00,,,0.00,WUHU216HW,2013-03-27 15:54:00,
2013-03-27 11:55:00,49.7,32.8,29.87,NNW,338,5.1,8.1,52,0.00,,,0.00,WUHU216HW,2013-03-27 15:55:00,
2013-03-27 11:57:00,49.9,32.0,29.87,WNW,293,5.6,7.8,50,0.00,,,0.00,WUHU216HW,2013-03-27 15:57:00,
2013-03-27 11:58:00,49.9,32.0,29.87,WSW,248,4.7,7.6,50,0.00,,,0.00,WUHU216HW,2013-03-27 15:58:00,
2013-03-27 12:00:00,49.9,32.0,29.87,SW,225,6.5,6.5,50,0.00,,,0.00,WUHU216HW,2013-03-27 16:00:00,
2013-03-27 12:02:00,50.0,32.2,29.87,NNW,338,4.7,6.5,50,0.00,,,0.00,WUHU216HW,2013-03-27 16:02:00,
2013-03-27 12:03:00,50.0,31.7,29.87,West,270,5.6,6.5,49,0.00,,,0.00,WUHU216HW,2013-03-27 16:03:00,
2013-03-27 12:05:00,50.2,31.9,29.87,WSW,248,5.4,6.5,49,0.00,,,0.00,WUHU216HW,2013-03-27 16:05:00,
2013-03-27 12:06:00,50.2,31.9,29.87,West,270,2.7,6.5,49,0.00,,,0.00,WUHU216HW,2013-03-27 16:06:00,
2013-03-27 12:08:00,50.4,32.6,29.87,West,270,8.3,8.3,50,0.00,,,0.00,WUHU216HW,2013-03-27 16:08:00,
2013-03-27 12:09:00,50.4,32.6,29.87,SW,225,0.7,8.3,50,0.00,,,0.00,WUHU216HW,2013-03-27 16:09:00,
2013-03-27 12:11:00,50.6,32.1,29.87,West,270,7.6,8.3,49,0.00,,,0.00,WUHU216HW,2013-03-27 16:11:00,
2013-03-27 12:12:00,50.8,32.3,29.87,WNW,293,4.3,8.3,49,0.00,,,0.00,WUHU216HW,2013-03-27 16:12:00,
2013-03-27 12:14:00,50.8,32.3,29.87,NNW,338,8.5,8.5,49,0.00,,,0.00,WUHU216HW,2013-03-27 16:14:00,
2013-03-27 12:15:00,50.8,32.3,29.87,NW,315,4.0,8.5,49,0.00,,,0.00,WUHU216HW,2013-03-27 16:15:00,
2013-03-27 12:17:00,50.8,31.8,29.87,WNW,293,3.8,8.5,48,0.00,,,0.00,WUHU216HW,2013-03-27 16:17:00,
2013-03-27 12:18:00,50.8,31.8,29.87,NW,315,6.5,8.5,48,0.00,,,0.00,WUHU216HW,2013-03-27 16:18:00,
2013-03-27 12:20:00,50.8,31.2,29.87,WNW,293,7.2,8.5,47,0.00,,,0.00,WUHU216HW,2013-03-27 16:20:00,
2013-03-27 12:21:00,50.8,31.8,29.87,NNW,338,2.2,8.5,48,0.00,,,0.00,WUHU216HW,2013-03-27 16:21:00,
2013-03-27 12:23:00,50.8,31.8,29.87,WSW,248,5.4,9.2,48,0.00,,,0.00,WUHU216HW,2013-03-27 16:23:00,
2013-03-27 12:24:00,50.9,31.3,29.87,NW,315,11.6,11.6,47,0.00,,,0.00,WUHU216HW,2013-03-27 16:24:00,
2013-03-27 12:25:00,50.9,31.3,29.87,WNW,293,5.6,11.6,47,0.00,,,0.00,WUHU216HW,2013-03-27 16:25:00,
2013-03-27 12:27:00,50.8,31.2,29.86,North,0,3.8,11.6,47,0.00,,,0.00,WUHU216HW,2013-03-27 16:27:00,
2013-03-27 12:28:00,50.9,32.0,29.86,NW,315,4.7,11.6,48,0.00,,,0.00,WUHU216HW,2013-03-27 16:28:00,
2013-03-27 12:30:00,50.9,31.3,29.86,WSW,248,7.2,11.6,47,0.00,,,0.00,WUHU216HW,2013-03-27 16:30:00,
2013-03-27 12:31:00,51.1,31.5,29.86,NW,315,3.8,11.6,47,0.00,,,0.00,WUHU216HW,2013-03-27 16:31:00,
2013-03-27 12:33:00,51.1,32.0,29.87,WSW,248,2.0,11.6,48,0.00,,,0.00,WUHU216HW,2013-03-27 16:33:00,
2013-03-27 12:34:00,51.3,32.2,29.86,WSW,248,2.2,7.2,48,0.00,,,0.00,WUHU216HW,2013-03-27 16:34:00,
2013-03-27 12:36:00,51.5,31.3,29.86,WSW,248,4.5,7.2,46,0.00,,,0.00,WUHU216HW,2013-03-27 16:36:00,
2013-03-27 12:37:00,51.5,31.9,29.86,WSW,248,1.8,7.2,47,0.00,,,0.00,WUHU216HW,2013-03-27 16:37:00,
2013-03-27 12:39:00,51.7,30.9,29.86,NNW,338,5.8,7.2,45,0.00,,,0.00,WUHU216HW,2013-03-27 16:39:00,
2013-03-27 12:40:00,51.7,30.9,29.86,North,0,5.1,6.5,45,0.00,,,0.00,WUHU216HW,2013-03-27 16:40:00,
2013-03-27 12:42:00,51.8,31.1,29.86,West,270,5.1,6.5,45,0.00,,,0.00,WUHU216HW,2013-03-27 16:42:00,
2013-03-27 12:43:00,51.8,31.1,29.86,NW,315,6.9,6.9,45,0.00,,,0.00,WUHU216HW,2013-03-27 16:43:00,
2013-03-27 12:45:00,52.0,29.5,29.86,NNW,338,5.8,6.9,42,0.00,,,0.00,WUHU216HW,2013-03-27 16:45:00,
2013-03-27 12:46:00,52.2,30.2,29.86,WSW,248,3.4,6.9,43,0.00,,,0.00,WUHU216HW,2013-03-27 16:46:00,
2013-03-27 12:48:00,52.2,30.2,29.86,NNW,338,4.7,6.9,43,0.00,,,0.00,WUHU216HW,2013-03-27 16:48:00,
2013-03-27 12:49:00,52.4,31.0,29.86,SW,225,4.7,6.9,44,0.00,,,0.00,WUHU216HW,2013-03-27 16:49:00,
2013-03-27 12:51:00,52.6,31.7,29.86,SSE,158,3.4,6.9,45,0.00,,,0.00,WUHU216HW,2013-03-27 16:51:00,
2013-03-27 12:52:00,52.6,31.7,29.86,NNW,338,6.0,6.9,45,0.00,,,0.00,WUHU216HW,2013-03-27 16:52:00,
2013-03-27 12:54:00,52.6,30.6,29.86,NNW,338,5.4,6.9,43,0.00,,,0.00,WUHU216HW,2013-03-27 16:54:00,
2013-03-27 12:55:00,52.6,31.1,29.86,WNW,293,1.1,6.9,44,0.00,,,0.00,WUHU216HW,2013-03-27 16:55:00,
2013-03-27 12:57:00,52.7,31.9,29.86,West,270,3.4,6.9,45,0.00,,,0.00,WUHU216HW,2013-03-27 16:57:00,
2013-03-27 12:58:00,52.7,31.9,29.86,SSE,158,3.1,6.9,45,0.00,,,0.00,WUHU216HW,2013-03-27 16:58:00,
2013-03-27 13:00:00,52.9,32.6,29.86,West,270,4.0,6.9,46,0.00,,,0.00,WUHU216HW,2013-03-27 17:00:00,
2013-03-27 13:02:00,53.1,32.2,29.86,SW,225,4.5,6.9,45,0.00,,,0.00,WUHU216HW,2013-03-27 17:02:00,
2013-03-27 13:03:00,52.9,32.1,29.86,WSW,248,8.7,8.7,45,0.00,,,0.00,WUHU216HW,2013-03-27 17:03:00,
2013-03-27 13:05:00,53.1,32.2,29.86,NNW,338,4.5,8.7,45,0.00,,,0.00,WUHU216HW,2013-03-27 17:05:00,
2013-03-27 13:06:00,53.1,31.6,29.85,NW,315,9.6,9.6,44,0.00,,,0.00,WUHU216HW,2013-03-27 17:06:00,
2013-03-27 13:08:00,53.1,32.2,29.86,West,270,4.0,9.6,45,0.00,,,0.00,WUHU216HW,2013-03-27 17:08:00,
2013-03-27 13:09:00,52.9,32.1,29.86,WSW,248,1.3,9.6,45,0.00,,,0.00,WUHU216HW,2013-03-27 17:09:00,
2013-03-27 13:10:00,53.1,32.2,29.85,NW,315,3.4,9.6,45,0.00,,,0.00,WUHU216HW,2013-03-27 17:10:00,
2013-03-27 13:12:00,53.3,31.8,29.85,WSW,248,6.0,9.6,44,0.00,,,0.00,WUHU216HW,2013-03-27 17:12:00,
2013-03-27 13:13:00,53.3,31.8,29.85,WSW,248,3.8,9.6,44,0.00,,,0.00,WUHU216HW,2013-03-27 17:13:00,
2013-03-27 13:15:00,53.5,31.4,29.85,NW,315,6.5,9.6,43,0.00,,,0.00,WUHU216HW,2013-03-27 17:15:00,
2013-03-27 13:16:00,53.5,31.4,29.85,WSW,248,4.0,6.7,43,0.00,,,0.00,WUHU216HW,2013-03-27 17:16:00,
2013-03-27 13:18:00,53.6,32.1,29.85,SW,225,3.6,6.7,44,0.00,,,0.00,WUHU216HW,2013-03-27 17:18:00,
2013-03-27 13:19:00,53.6,32.1,29.85,NW,315,1.8,6.7,44,0.00,,,0.00,WUHU216HW,2013-03-27 17:19:00,
2013-03-27 13:21:00,53.6,30.4,29.85,NW,315,6.9,6.9,41,0.00,,,0.00,WUHU216HW,2013-03-27 17:21:00,
2013-03-27 13:22:00,53.6,29.2,29.85,NW,315,3.6,6.9,39,0.00,,,0.00,WUHU216HW,2013-03-27 17:22:00,
2013-03-27 13:24:00,53.5,30.2,29.85,NW,315,5.4,6.9,41,0.00,,,0.00,WUHU216HW,2013-03-27 17:24:00,
2013-03-27 13:25:00,53.3,29.5,29.85,West,270,5.1,6.9,40,0.00,,,0.00,WUHU216HW,2013-03-27 17:25:00,
2013-03-27 13:27:00,53.1,29.4,29.85,WSW,248,2.2,6.9,40,0.00,,,0.00,WUHU216HW,2013-03-27 17:27:00,
2013-03-27 13:28:00,52.9,29.8,29.85,WSW,248,1.6,6.9,41,0.00,,,0.00,WUHU216HW,2013-03-27 17:28:00,
2013-03-27 13:30:00,52.9,30.3,29.85,West,270,7.4,7.4,42,0.00,,,0.00,WUHU216HW,2013-03-27 17:30:00,
2013-03-27 13:31:00,52.9,30.3,29.85,WSW,248,5.4,7.4,42,0.00,,,0.00,WUHU216HW,2013-03-27 17:31:00,
2013-03-27 13:33:00,52.9,30.3,29.85,WSW,248,4.9,7.4,42,0.00,,,0.00,WUHU216HW,2013-03-27 17:33:00,
2013-03-27 13:34:00,53.1,30.5,29.85,West,270,2.5,7.4,42,0.00,,,0.00,WUHU216HW,2013-03-27 17:34:00,
2013-03-27 13:36:00,53.1,31.1,29.85,NW,315,4.0,7.4,43,0.00,,,0.00,WUHU216HW,2013-03-27 17:36:00,
2013-03-27 13:37:00,53.3,31.2,29.85,West,270,2.5,7.4,43,0.00,,,0.00,WUHU216HW,2013-03-27 17:37:00,
2013-03-27 13:39:00,53.3,30.2,29.85,NW,315,4.7,7.4,41,0.00,,,0.00,WUHU216HW,2013-03-27 17:39:00,
2013-03-27 13:40:00,53.5,29.1,29.85,NNW,338,4.9,5.4,39,0.00,,,0.00,WUHU216HW,2013-03-27 17:40:00,
2013-03-27 13:42:00,53.6,29.9,29.85,WSW,248,4.7,5.4,40,0.00,,,0.00,WUHU216HW,2013-03-27 17:42:00,
2013-03-27 13:43:00,53.6,29.9,29.85,WNW,293,4.7,5.4,40,0.00,,,0.00,WUHU216HW,2013-03-27 17:43:00,
2013-03-27 13:44:00,53.6,29.9,29.85,WSW,248,6.3,6.3,40,0.00,,,0.00,WUHU216HW,2013-03-27 17:44:00,
2013-03-27 13:46:00,53.5,30.2,29.85,NW,315,1.8,9.2,41,0.00,,,0.00,WUHU216HW,2013-03-27 17:46:00,
2013-03-27 13:47:00,53.5,30.2,29.85,West,270,6.3,9.2,41,0.00,,,0.00,WUHU216HW,2013-03-27 17:47:00,
2013-03-27 13:49:00,53.3,29.5,29.84,NW,315,8.3,9.2,40,0.00,,,0.00,WUHU216HW,2013-03-27 17:49:00,
2013-03-27 13:50:00,53.3,30.2,29.84,WNW,293,3.8,9.2,41,0.00,,,0.00,WUHU216HW,2013-03-27 17:50:00,
2013-03-27 13:52:00,53.3,30.2,29.84,WSW,248,2.9,9.2,41,0.00,,,0.00,WUHU216HW,2013-03-27 17:52:00,
2013-03-27 13:53:00,53.3,30.2,29.84,WSW,248,3.4,9.2,41,0.00,,,0.00,WUHU216HW,2013-03-27 17:53:00,
2013-03-27 13:55:00,53.5,30.9,29.84,NNW,338,3.4,8.3,42,0.00,,,0.00,WUHU216HW,2013-03-27 17:55:00,
2013-03-27 13:56:00,53.6,30.4,29.84,West,270,5.4,8.3,41,0.00,,,0.00,WUHU216HW,2013-03-27 17:56:00,
2013-03-27 13:58:00,53.6,29.9,29.84,NE,45,4.7,8.3,40,0.00,,,0.00,WUHU216HW,2013-03-27 17:58:00,
2013-03-27 14:00:00,53.8,29.3,29.84,SW,225,6.5,6.9,39,0.00,,,0.00,WUHU216HW,2013-03-27 18:00:00,
2013-03-27 14:01:00,53.8,30.1,29.84,SSW,203,6.0,6.5,40,0.00,,,0.00,WUHU216HW,2013-03-27 18:01:00,
2013-03-27 14:03:00,53.8,30.6,29.84,NW,315,6.0,6.5,41,0.00,,,0.00,WUHU216HW,2013-03-27 18:03:00,
2013-03-27 14:04:00,53.8,30.1,29.84,NW,315,2.2,6.5,40,0.00,,,0.00,WUHU216HW,2013-03-27 18:04:00,
2013-03-27 14:06:00,53.8,29.3,29.84,West,270,7.2,8.1,39,0.00,,,0.00,WUHU216HW,2013-03-27 18:06:00,
2013-03-27 14:07:00,53.8,29.3,29.84,SSW,203,4.9,8.1,39,0.00,,,0.00,WUHU216HW,2013-03-27 18:07:00,
2013-03-27 14:09:00,54.0,30.3,29.84,SW,225,4.7,8.1,40,0.00,,,0.00,WUHU216HW,2013-03-27 18:09:00,
2013-03-27 14:10:00,54.0,29.5,29.84,WSW,248,4.9,8.1,39,0.00,,,0.00,WUHU216HW,2013-03-27 18:10:00,
2013-03-27 14:12:00,54.0,29.5,29.84,NNE,23,6.3,8.1,39,0.00,,,0.00,WUHU216HW,2013-03-27 18:12:00,
2013-03-27 14:13:00,53.8,29.3,29.84,WSW,248,4.7,8.1,39,0.00,,,0.00,WUHU216HW,2013-03-27 18:13:00,
2013-03-27 14:15:00,53.8,29.3,29.84,SW,225,4.0,7.2,39,0.00,,,0.00,WUHU216HW,2013-03-27 18:15:00,
2013-03-27 14:16:00,53.8,29.3,29.84,SSW,203,1.8,6.3,39,0.00,,,0.00,WUHU216HW,2013-03-27 18:16:00,
2013-03-27 14:18:00,53.6,29.2,29.84,SW,225,4.3,6.3,39,0.00,,,0.00,WUHU216HW,2013-03-27 18:18:00,
2013-03-27 14:19:00,53.6,29.9,29.84,WSW,248,2.9,6.3,40,0.00,,,0.00,WUHU216HW,2013-03-27 18:19:00,
2013-03-27 14:21:00,53.5,29.1,29.84,North,0,3.8,6.3,39,0.00,,,0.00,WUHU216HW,2013-03-27 18:21:00,
2013-03-27 14:22:00,53.3,29.5,29.84,WSW,248,3.4,6.0,40,0.00,,,0.00,WUHU216HW,2013-03-27 18:22:00,
2013-03-27 14:24:00,53.3,29.5,29.84,NW,315,1.6,6.0,40,0.00,,,0.00,WUHU216HW,2013-03-27 18:24:00,
2013-03-27 14:25:00,53.1,29.4,29.84,WNW,293,8.7,8.7,40,0.00,,,0.00,WUHU216HW,2013-03-27 18:25:00,
2013-03-27 14:27:00,52.9,29.3,29.84,WNW,293,4.7,8.7,40,0.00,,,0.00,WUHU216HW,2013-03-27 18:27:00,
2013-03-27 14:28:00,52.9,29.3,29.84,NW,315,4.7,8.7,40,0.00,,,0.00,WUHU216HW,2013-03-27 18:28:00,
2013-03-27 14:29:00,52.7,28.4,29.84,West,270,5.6,8.7,39,0.00,,,0.00,WUHU216HW,2013-03-27 18:29:00,
2013-03-27 14:31:00,52.7,29.1,29.84,West,270,4.7,8.7,40,0.00,,,0.00,WUHU216HW,2013-03-27 18:31:00,
2013-03-27 14:32:00,52.7,28.4,29.84,South,180,5.8,8.7,39,0.00,,,0.00,WUHU216HW,2013-03-27 18:32:00,
2013-03-27 14:34:00,52.9,28.5,29.84,NW,315,3.8,8.7,39,0.00,,,0.00,WUHU216HW,2013-03-27 18:34:00,
2013-03-27 14:35:00,52.9,28.5,29.84,NNW,338,2.7,6.5,39,0.00,,,0.00,WUHU216HW,2013-03-27 18:35:00,
2013-03-27 14:37:00,52.9,29.3,29.84,West,270,2.2,6.5,40,0.00,,,0.00,WUHU216HW,2013-03-27 18:37:00,
2013-03-27 14:38:00,52.9,29.3,29.84,West,270,6.3,6.5,40,0.00,,,0.00,WUHU216HW,2013-03-27 18:38:00,
2013-03-27 14:40:00,52.9,29.3,29.84,SSW,203,5.8,6.3,40,0.00,,,0.00,WUHU216HW,2013-03-27 18:40:00,
2013-03-27 14:41:00,52.9,29.3,29.84,SW,225,4.0,6.3,40,0.00,,,0.00,WUHU216HW,2013-03-27 18:41:00,
2013-03-27 14:43:00,52.9,27.9,29.84,WSW,248,3.8,6.3,38,0.00,,,0.00,WUHU216HW,2013-03-27 18:43:00,
2013-03-27 14:44:00,52.9,28.5,29.83,WNW,293,4.0,6.3,39,0.00,,,0.00,WUHU216HW,2013-03-27 18:44:00,
2013-03-27 14:46:00,52.9,29.3,29.83,West,270,2.0,6.3,40,0.00,,,0.00,WUHU216HW,2013-03-27 18:46:00,
2013-03-27 14:47:00,52.9,29.3,29.83,SW,225,2.0,6.3,40,0.00,,,0.00,WUHU216HW,2013-03-27 18:47:00,
2013-03-27 14:49:00,53.1,29.4,29.83,WSW,248,5.6,5.8,40,0.00,,,0.00,WUHU216HW,2013-03-27 18:49:00,
2013-03-27 14:50:00,53.3,29.5,29.83,SE,135,4.0,5.6,40,0.00,,,0.00,WUHU216HW,2013-03-27 18:50:00,
2013-03-27 14:52:00,53.3,29.5,29.83,SSW,203,2.9,9.2,40,0.00,,,0.00,WUHU216HW,2013-03-27 18:52:00,
2013-03-27 14:53:00,53.3,29.5,29.83,SW,225,3.6,9.2,40,0.00,,,0.00,WUHU216HW,2013-03-27 18:53:00,
2013-03-27 14:55:00,53.3,29.5,29.83,SSE,158,4.0,9.2,40,0.00,,,0.00,WUHU216HW,2013-03-27 18:55:00,
2013-03-27 14:56:00,53.3,30.2,29.83,NW,315,3.4,9.2,41,0.00,,,0.00,WUHU216HW,2013-03-27 18:56:00,
2013-03-27 14:58:00,53.6,29.2,29.83,WSW,248,5.8,9.2,39,0.00,,,0.00,WUHU216HW,2013-03-27 18:58:00,
2013-03-27 15:00:00,53.6,29.2,29.83,WSW,248,4.7,9.2,39,0.00,,,0.00,WUHU216HW,2013-03-27 19:00:00,
2013-03-27 15:01:00,53.6,29.9,29.83,WNW,293,5.1,7.2,40,0.00,,,0.00,WUHU216HW,2013-03-27 19:01:00,
2013-03-27 15:03:00,53.6,28.5,29.83,NNW,338,7.2,7.2,38,0.00,,,0.00,WUHU216HW,2013-03-27 19:03:00,
2013-03-27 15:04:00,53.6,29.2,29.83,WNW,293,7.8,7.8,39,0.00,,,0.00,WUHU216HW,2013-03-27 19:04:00,
2013-03-27 15:06:00,53.6,28.5,29.83,West,270,3.4,7.8,38,0.00,,,0.00,WUHU216HW,2013-03-27 19:06:00,
2013-03-27 15:07:00,53.5,29.1,29.83,WSW,248,6.3,7.8,39,0.00,,,0.00,WUHU216HW,2013-03-27 19:07:00,
2013-03-27 15:09:00,53.3,28.9,29.83,WSW,248,4.7,7.8,39,0.00,,,0.00,WUHU216HW,2013-03-27 19:09:00,
2013-03-27 15:10:00,53.3,28.2,29.83,West,270,5.4,7.8,38,0.00,,,0.00,WUHU216HW,2013-03-27 19:10:00,
2013-03-27 15:12:00,53.3,29.5,29.83,SSW,203,4.0,7.8,40,0.00,,,0.00,WUHU216HW,2013-03-27 19:12:00,
2013-03-27 15:13:00,53.3,29.5,29.83,West,270,4.3,7.8,40,0.00,,,0.00,WUHU216HW,2013-03-27 19:13:00,
2013-03-27 15:15:00,53.5,29.7,29.83,SW,225,7.8,7.8,40,0.00,,,0.00,WUHU216HW,2013-03-27 19:15:00,
2013-03-27 15:16:00,53.6,29.9,29.83,West,270,3.4,7.8,40,0.00,,,0.00,WUHU216HW,2013-03-27 19:16:00,
2013-03-27 15:18:00,53.6,29.2,29.83,SSW,203,4.7,7.8,39,0.00,,,0.00,WUHU216HW,2013-03-27 19:18:00,
2013-03-27 15:19:00,53.6,28.5,29.83,WNW,293,8.3,8.3,38,0.00,,,0.00,WUHU216HW,2013-03-27 19:19:00,
2013-03-27 15:20:00,53.5,28.4,29.83,WSW,248,4.5,8.3,38,0.00,,,0.00,WUHU216HW,2013-03-27 19:20:00,
2013-03-27 15:22:00,53.3,28.2,29.83,WSW,248,4.5,8.3,38,0.00,,,0.00,WUHU216HW,2013-03-27 19:22:00,
2013-03-27 15:23:00,53.3,28.9,29.83,NW,315,4.9,8.3,39,0.00,,,0.00,WUHU216HW,2013-03-27 19:23:00,
2013-03-27 15:25:00,53.1,28.0,29.83,NNW,338,10.5,10.5,38,0.00,,,0.00,WUHU216HW,2013-03-27 19:25:00,
2013-03-27 15:26:00,53.1,28.0,29.83,West,270,6.9,10.5,38,0.00,,,0.00,WUHU216HW,2013-03-27 19:26:00,
2013-03-27 15:28:00,52.9,27.9,29.83,SW,225,2.5,10.5,38,0.00,,,0.00,WUHU216HW,2013-03-27 19:28:00,
2013-03-27 15:29:00,52.9,28.5,29.83,SE,135,3.4,10.5,39,0.00,,,0.00,WUHU216HW,2013-03-27 19:29:00,
2013-03-27 15:31:00,53.1,28.7,29.83,SSW,203,4.7,10.5,39,0.00,,,0.00,WUHU216HW,2013-03-27 19:31:00,
2013-03-27 15:32:00,53.3,28.9,29.83,SSW,203,6.7,10.5,39,0.00,,,0.00,WUHU216HW,2013-03-27 19:32:00,
2013-03-27 15:34:00,53.5,28.4,29.83,West,270,5.1,10.5,38,0.00,,,0.00,WUHU216HW,2013-03-27 19:34:00,
2013-03-27 15:35:00,53.6,28.5,29.83,WNW,293,7.2,8.7,38,0.00,,,0.00,WUHU216HW,2013-03-27 19:35:00,
2013-03-27 15:37:00,53.6,28.5,29.83,WNW,293,7.4,7.6,38,0.00,,,0.00,WUHU216HW,2013-03-27 19:37:00,
2013-03-27 15:38:00,53.8,28.7,29.83,SSE,158,5.6,7.6,38,0.00,,,0.00,WUHU216HW,2013-03-27 19:38:00,
2013-03-27 15:40:00,54.0,28.2,29.83,West,270,6.5,7.6,37,0.00,,,0.00,WUHU216HW,2013-03-27 19:40:00,
2013-03-27 15:41:00,54.0,28.2,29.83,WSW,248,7.2,7.6,37,0.00,,,0.00,WUHU216HW,2013-03-27 19:41:00,
2013-03-27 15:43:00,54.2,28.3,29.83,NW,315,10.1,10.1,37,0.00,,,0.00,WUHU216HW,2013-03-27 19:43:00,
2013-03-27 15:44:00,54.0,27.5,29.83,WSW,248,4.7,10.1,36,0.00,,,0.00,WUHU216HW,2013-03-27 19:44:00,
2013-03-27 15:46:00,53.8,27.3,29.83,NNW,338,6.3,11.0,36,0.00,,,0.00,WUHU216HW,2013-03-27 19:46:00,
2013-03-27 15:47:00,53.6,27.2,29.83,WNW,293,5.6,11.0,36,0.00,,,0.00,WUHU216HW,2013-03-27 19:47:00,
2013-03-27 15:49:00,53.5,27.6,29.84,WNW,293,7.4,11.0,37,0.00,,,0.00,WUHU216HW,2013-03-27 19:49:00,
2013-03-27 15:50:00,53.3,28.2,29.84,NE,45,2.7,11.0,38,0.00,,,0.00,WUHU216HW,2013-03-27 19:50:00,
2013-03-27 15:52:00,52.9,28.5,29.84,WNW,293,3.4,11.0,39,0.00,,,0.00,WUHU216HW,2013-03-27 19:52:00,
2013-03-27 15:53:00,52.7,28.4,29.83,NW,315,1.1,11.0,39,0.00,,,0.00,WUHU216HW,2013-03-27 19:53:00,
2013-03-27 15:54:00,52.6,28.9,29.84,SW,225,1.3,7.4,40,0.00,,,0.00,WUHU216HW,2013-03-27 19:54:00,
2013-03-27 15:56:00,52.2,29.2,29.84,SSW,203,4.7,7.4,41,0.00,,,0.00,WUHU216HW,2013-03-27 19:56:00,
2013-03-27 15:57:00,52.2,29.2,29.84,West,270,6.3,7.4,41,0.00,,,0.00,WUHU216HW,2013-03-27 19:57:00,
2013-03-27 16:00:00,52.0,28.5,29.84,NNW,338,6.5,8.5,40,0.00,,,0.00,WUHU216HW,2013-03-27 20:00:00,
2013-03-27 16:01:00,51.8,28.3,29.84,WNW,293,8.5,8.5,40,0.00,,,0.00,WUHU216HW,2013-03-27 20:01:00,
2013-03-27 16:03:00,51.7,28.1,29.84,WNW,293,4.9,10.5,40,0.00,,,0.00,WUHU216HW,2013-03-27 20:03:00,
2013-03-27 16:04:00,51.5,27.9,29.84,North,0,6.3,10.5,40,0.00,,,0.00,WUHU216HW,2013-03-27 20:04:00,
2013-03-27 16:05:00,51.5,28.5,29.84,NNW,338,8.3,10.5,41,0.00,,,0.00,WUHU216HW,2013-03-27 20:05:00,
2013-03-27 16:07:00,51.3,28.4,29.84,NW,315,6.3,10.5,41,0.00,,,0.00,WUHU216HW,2013-03-27 20:07:00,
2013-03-27 16:08:00,51.1,28.2,29.84,NNW,338,8.1,10.5,41,0.00,,,0.00,WUHU216HW,2013-03-27 20:08:00,
2013-03-27 16:10:00,51.1,28.7,29.84,NW,315,9.2,10.5,42,0.00,,,0.00,WUHU216HW,2013-03-27 20:10:00,
2013-03-27 16:11:00,50.9,28.5,29.84,NNW,338,6.0,10.5,42,0.00,,,0.00,WUHU216HW,2013-03-27 20:11:00,
2013-03-27 16:13:00,50.8,29.0,29.84,NNW,338,2.2,9.2,43,0.00,,,0.00,WUHU216HW,2013-03-27 20:13:00,
2013-03-27 16:14:00,50.8,28.5,29.84,NNW,338,2.2,9.2,42,0.00,,,0.00,WUHU216HW,2013-03-27 20:14:00,
2013-03-27 16:16:00,50.8,28.5,29.84,SW,225,3.1,9.2,42,0.00,,,0.00,WUHU216HW,2013-03-27 20:16:00,
2013-03-27 16:17:00,50.8,28.5,29.84,SW,225,1.8,9.2,42,0.00,,,0.00,WUHU216HW,2013-03-27 20:17:00,
2013-03-27 16:19:00,50.8,28.5,29.84,West,270,1.1,9.2,42,0.00,,,0.00,WUHU216HW,2013-03-27 20:19:00,
2013-03-27 16:20:00,50.8,28.5,29.84,North,0,7.4,7.4,42,0.00,,,0.00,WUHU216HW,2013-03-27 20:20:00,
2013-03-27 16:22:00,51.1,28.7,29.84,West,270,7.6,7.6,42,0.00,,,0.00,WUHU216HW,2013-03-27 20:22:00,
2013-03-27 16:23:00,51.1,29.3,29.84,ENE,68,3.4,7.6,43,0.00,,,0.00,WUHU216HW,2013-03-27 20:23:00,
2013-03-27 16:25:00,51.3,29.4,29.84,NE,45,4.7,7.6,43,0.00,,,0.00,WUHU216HW,2013-03-27 20:25:00,
2013-03-27 16:26:00,51.3,29.4,29.84,NNW,338,3.8,7.6,43,0.00,,,0.00,WUHU216HW,2013-03-27 20:26:00,
2013-03-27 16:28:00,51.3,28.9,29.84,WSW,248,1.8,7.6,42,0.00,,,0.00,WUHU216HW,2013-03-27 20:28:00,
2013-03-27 16:29:00,51.3,28.9,29.84,NNW,338,4.3,7.6,42,0.00,,,0.00,WUHU216HW,2013-03-27 20:29:00,
2013-03-27 16:31:00,51.3,29.4,29.84,NW,315,3.4,7.6,43,0.00,,,0.00,WUHU216HW,2013-03-27 20:31:00,
2013-03-27 16:32:00,51.5,29.1,29.84,NW,315,1.8,6.3,42,0.00,,,0.00,WUHU216HW,2013-03-27 20:32:00,
2013-03-27 16:34:00,51.5,29.1,29.84,NW,315,2.7,4.9,42,0.00,,,0.00,WUHU216HW,2013-03-27 20:34:00,
2013-03-27 16:35:00,51.5,29.6,29.84,WSW,248,2.9,4.9,43,0.00,,,0.00,WUHU216HW,2013-03-27 20:35:00,
2013-03-27 16:37:00,51.5,29.1,29.84,NNW,338,6.3,6.3,42,0.00,,,0.00,WUHU216HW,2013-03-27 20:37:00,
2013-03-27 16:38:00,51.5,29.1,29.84,NNW,338,3.4,6.3,42,0.00,,,0.00,WUHU216HW,2013-03-27 20:38:00,
2013-03-27 16:39:00,51.7,29.3,29.84,NW,315,3.6,6.3,42,0.00,,,0.00,WUHU216HW,2013-03-27 20:39:00,
2013-03-27 16:41:00,51.7,29.3,29.84,WNW,293,6.3,6.3,42,0.00,,,0.00,WUHU216HW,2013-03-27 20:41:00,
2013-03-27 16:42:00,51.8,29.3,29.84,SSW,203,2.5,6.3,42,0.00,,,0.00,WUHU216HW,2013-03-27 20:42:00,
2013-03-27 16:44:00,51.8,28.8,29.84,WNW,293,4.7,6.3,41,0.00,,,0.00,WUHU216HW,2013-03-27 20:44:00,
2013-03-27 16:45:00,51.8,29.3,29.84,SSW,203,3.6,6.3,42,0.00,,,0.00,WUHU216HW,2013-03-27 20:45:00,
2013-03-27 16:47:00,52.0,29.0,29.84,SW,225,5.4,6.3,41,0.00,,,0.00,WUHU216HW,2013-03-27 20:47:00,
2013-03-27 16:48:00,52.0,29.0,29.84,WSW,248,4.3,6.3,41,0.00,,,0.00,WUHU216HW,2013-03-27 20:48:00,
2013-03-27 16:50:00,52.0,29.0,29.84,NNW,338,4.9,6.3,41,0.00,,,0.00,WUHU216HW,2013-03-27 20:50:00,
2013-03-27 16:51:00,52.0,28.5,29.84,WSW,248,2.5,6.3,40,0.00,,,0.00,WUHU216HW,2013-03-27 20:51:00,
2013-03-27 16:53:00,52.2,29.2,29.84,NNW,338,5.4,5.6,41,0.00,,,0.00,WUHU216HW,2013-03-27 20:53:00,
2013-03-27 16:54:00,52.0,29.0,29.84,WSW,248,3.8,5.6,41,0.00,,,0.00,WUHU216HW,2013-03-27 20:54:00,
2013-03-27 16:56:00,52.0,29.0,29.84,West,270,6.0,8.5,41,0.00,,,0.00,WUHU216HW,2013-03-27 20:56:00,
2013-03-27 16:57:00,52.2,29.2,29.84,WSW,248,8.9,8.9,41,0.00,,,0.00,WUHU216HW,2013-03-27 20:57:00,
2013-03-27 16:59:00,52.2,29.2,29.84,West,270,4.9,8.9,41,0.00,,,0.00,WUHU216HW,2013-03-27 20:59:00,
2013-03-27 17:01:00,52.0,28.5,29.84,West,270,6.7,8.9,40,0.00,,,0.00,WUHU216HW,2013-03-27 21:01:00,
2013-03-27 17:02:00,52.0,28.5,29.84,NW,315,8.9,8.9,40,0.00,,,0.00,WUHU216HW,2013-03-27 21:02:00,
2013-03-27 17:04:00,52.0,28.5,29.84,WSW,248,3.4,8.9,40,0.00,,,0.00,WUHU216HW,2013-03-27 21:04:00,
2013-03-27 17:05:00,52.0,29.0,29.84,WNW,293,2.5,8.9,41,0.00,,,0.00,WUHU216HW,2013-03-27 21:05:00,
2013-03-27 17:07:00,52.0,29.0,29.84,WNW,293,6.5,8.9,41,0.00,,,0.00,WUHU216HW,2013-03-27 21:07:00,
2013-03-27 17:08:00,52.0,29.0,29.84,West,270,5.4,8.9,41,0.00,,,0.00,WUHU216HW,2013-03-27 21:08:00,
2013-03-27 17:10:00,51.8,28.8,29.84,SW,225,2.5,8.9,41,0.00,,,0.00,WUHU216HW,2013-03-27 21:10:00,
2013-03-27 17:11:00,51.8,28.8,29.84,NW,315,3.4,8.9,41,0.00,,,0.00,WUHU216HW,2013-03-27 21:11:00,
2013-03-27 17:13:00,51.8,28.8,29.84,WNW,293,4.9,8.5,41,0.00,,,0.00,WUHU216HW,2013-03-27 21:13:00,
2013-03-27 17:14:00,51.8,28.8,29.84,NW,315,3.8,8.5,41,0.00,,,0.00,WUHU216HW,2013-03-27 21:14:00,
2013-03-27 17:16:00,51.8,28.3,29.84,WSW,248,4.9,8.5,40,0.00,,,0.00,WUHU216HW,2013-03-27 21:16:00,
2013-03-27 17:17:00,51.8,28.3,29.84,West,270,7.6,8.5,40,0.00,,,0.00,WUHU216HW,2013-03-27 21:17:00,
2013-03-27 17:19:00,51.7,28.1,29.84,West,270,5.8,7.6,40,0.00,,,0.00,WUHU216HW,2013-03-27 21:19:00,
2013-03-27 17:20:00,51.7,28.1,29.84,SW,225,5.4,7.6,40,0.00,,,0.00,WUHU216HW,2013-03-27 21:20:00,
2013-03-27 17:22:00,51.5,27.9,29.84,West,270,3.4,7.6,40,0.00,,,0.00,WUHU216HW,2013-03-27 21:22:00,
2013-03-27 17:23:00,51.5,27.9,29.85,West,270,9.8,9.8,40,0.00,,,0.00,WUHU216HW,2013-03-27 21:23:00,
2013-03-27 17:24:00,51.5,28.5,29.85,NW,315,4.0,9.8,41,0.00,,,0.00,WUHU216HW,2013-03-27 21:24:00,
2013-03-27 17:26:00,51.5,28.5,29.85,NNW,338,6.3,9.8,41,0.00,,,0.00,WUHU216HW,2013-03-27 21:26:00,
2013-03-27 17:27:00,51.5,28.5,29.85,NW,315,3.4,9.8,41,0.00,,,0.00,WUHU216HW,2013-03-27 21:27:00,
2013-03-27 17:29:00,51.5,28.5,29.84,SW,225,4.7,9.8,41,0.00,,,0.00,WUHU216HW,2013-03-27 21:29:00,
2013-03-27 17:30:00,51.5,28.5,29.85,NW,315,4.7,9.8,41,0.00,,,0.00,WUHU216HW,2013-03-27 21:30:00,
2013-03-27 17:32:00,51.3,28.4,29.84,WSW,248,5.4,9.8,41,0.00,,,0.00,WUHU216HW,2013-03-27 21:32:00,
2013-03-27 17:33:00,51.5,28.5,29.85,WSW,248,2.9,6.3,41,0.00,,,0.00,WUHU216HW,2013-03-27 21:33:00,
2013-03-27 17:35:00,51.5,28.5,29.84,WSW,248,2.5,6.3,41,0.00,,,0.00,WUHU216HW,2013-03-27 21:35:00,
2013-03-27 17:36:00,51.5,28.5,29.85,WSW,248,7.2,7.2,41,0.00,,,0.00,WUHU216HW,2013-03-27 21:36:00,
2013-03-27 17:38:00,51.5,28.5,29.85,West,270,5.4,7.2,41,0.00,,,0.00,WUHU216HW,2013-03-27 21:38:00,
2013-03-27 17:39:00,51.3,27.8,29.85,NW,315,5.1,7.2,40,0.00,,,0.00,WUHU216HW,2013-03-27 21:39:00,
2013-03-27 17:41:00,51.3,27.8,29.85,West,270,2.7,7.2,40,0.00,,,0.00,WUHU216HW,2013-03-27 21:41:00,
2013-03-27 17:42:00,51.5,28.5,29.85,North,0,4.5,7.2,41,0.00,,,0.00,WUHU216HW,2013-03-27 21:42:00,
2013-03-27 17:44:00,51.5,27.9,29.85,SW,225,2.7,7.2,40,0.00,,,0.00,WUHU216HW,2013-03-27 21:44:00,
2013-03-27 17:45:00,51.5,28.5,29.85,North,0,2.5,7.2,41,0.00,,,0.00,WUHU216HW,2013-03-27 21:45:00,
2013-03-27 17:47:00,51.5,28.5,29.85,West,270,3.4,5.8,41,0.00,,,0.00,WUHU216HW,2013-03-27 21:47:00,
2013-03-27 17:48:00,51.5,28.5,29.85,WSW,248,5.8,5.8,41,0.00,,,0.00,WUHU216HW,2013-03-27 21:48:00,
2013-03-27 17:50:00,51.5,27.9,29.85,NW,315,1.3,5.8,40,0.00,,,0.00,WUHU216HW,2013-03-27 21:50:00,
2013-03-27 17:51:00,51.5,27.9,29.85,WSW,248,4.3,5.8,40,0.00,,,0.00,WUHU216HW,2013-03-27 21:51:00,
2013-03-27 17:53:00,51.3,28.4,29.85,WSW,248,6.5,6.5,41,0.00,,,0.00,WUHU216HW,2013-03-27 21:53:00,
2013-03-27 17:54:00,51.3,28.4,29.85,WSW,248,4.0,6.5,41,0.00,,,0.00,WUHU216HW,2013-03-27 21:54:00,
2013-03-27 17:56:00,51.5,28.5,29.85,SW,225,3.4,7.6,41,0.00,,,0.00,WUHU216HW,2013-03-27 21:56:00,
2013-03-27 17:57:00,51.5,28.5,29.85,SW,225,3.8,7.6,41,0.00,,,0.00,WUHU216HW,2013-03-27 21:57:00,
2013-03-27 17:58:00,51.3,27.8,29.85,WSW,248,4.7,7.6,40,0.00,,,0.00,WUHU216HW,2013-03-27 21:58:00,
2013-03-27 18:01:00,51.3,28.4,29.85,WSW,248,6.5,7.6,41,0.00,,,0.00,WUHU216HW,2013-03-27 22:01:00,
2013-03-27 18:02:00,51.1,28.2,29.85,WNW,293,2.9,7.6,41,0.00,,,0.00,WUHU216HW,2013-03-27 22:02:00,
2013-03-27 18:04:00,51.1,28.2,29.85,West,270,2.9,7.6,41,0.00,,,0.00,WUHU216HW,2013-03-27 22:04:00,
2013-03-27 18:05:00,51.3,28.4,29.85,WSW,248,5.4,7.6,41,0.00,,,0.00,WUHU216HW,2013-03-27 22:05:00,
2013-03-27 18:07:00,51.3,28.4,29.85,WSW,248,4.5,6.5,41,0.00,,,0.00,WUHU216HW,2013-03-27 22:07:00,
2013-03-27 18:08:00,51.1,28.2,29.85,NW,315,4.7,6.5,41,0.00,,,0.00,WUHU216HW,2013-03-27 22:08:00,
2013-03-27 18:09:00,51.1,28.2,29.85,NW,315,9.2,9.2,41,0.00,,,0.00,WUHU216HW,2013-03-27 22:09:00,
2013-03-27 18:11:00,51.1,28.2,29.85,SW,225,3.4,9.2,41,0.00,,,0.00,WUHU216HW,2013-03-27 22:11:00,
2013-03-27 18:12:00,51.1,28.7,29.85,North,0,3.6,9.2,42,0.00,,,0.00,WUHU216HW,2013-03-27 22:12:00,
2013-03-27 18:14:00,51.1,28.7,29.85,SSW,203,2.7,9.2,42,0.00,,,0.00,WUHU216HW,2013-03-27 22:14:00,
2013-03-27 18:15:00,51.1,28.7,29.85,WNW,293,4.5,9.2,42,0.00,,,0.00,WUHU216HW,2013-03-27 22:15:00,
2013-03-27 18:17:00,51.1,28.2,29.85,SSW,203,3.4,9.2,41,0.00,,,0.00,WUHU216HW,2013-03-27 22:17:00,
2013-03-27 18:18:00,51.1,28.2,29.85,WSW,248,3.1,9.2,41,0.00,,,0.00,WUHU216HW,2013-03-27 22:18:00,
2013-03-27 18:20:00,50.9,28.5,29.86,West,270,1.6,4.5,42,0.00,,,0.00,WUHU216HW,2013-03-27 22:20:00,
2013-03-27 18:21:00,50.9,28.5,29.86,SW,225,2.7,4.5,42,0.00,,,0.00,WUHU216HW,2013-03-27 22:21:00,
2013-03-27 18:23:00,50.9,28.0,29.86,WSW,248,6.9,6.9,41,0.00,,,0.00,WUHU216HW,2013-03-27 22:23:00,
2013-03-27 18:24:00,50.9,28.5,29.86,WNW,293,5.1,6.9,42,0.00,,,0.00,WUHU216HW,2013-03-27 22:24:00,
2013-03-27 18:26:00,50.8,28.5,29.86,WSW,248,3.6,6.9,42,0.00,,,0.00,WUHU216HW,2013-03-27 22:26:00,
2013-03-27 18:27:00,50.8,27.8,29.86,SW,225,6.5,6.9,41,0.00,,,0.00,WUHU216HW,2013-03-27 22:27:00,
2013-03-27 18:29:00,50.6,28.3,29.86,West,270,1.6,6.9,42,0.00,,,0.00,WUHU216HW,2013-03-27 22:29:00,
2013-03-27 18:30:00,50.6,28.3,29.86,West,270,5.4,6.9,42,0.00,,,0.00,WUHU216HW,2013-03-27 22:30:00,
2013-03-27 18:32:00,50.4,28.6,29.86,SW,225,4.5,6.9,43,0.00,,,0.00,WUHU216HW,2013-03-27 22:32:00,
2013-03-27 18:33:00,50.4,28.1,29.86,WSW,248,3.4,6.5,42,0.00,,,0.00,WUHU216HW,2013-03-27 22:33:00,
2013-03-27 18:35:00,50.2,27.9,29.86,WSW,248,0.9,6.5,42,0.00,,,0.00,WUHU216HW,2013-03-27 22:35:00,
2013-03-27 18:36:00,50.2,27.9,29.86,SSW,203,2.0,6.5,42,0.00,,,0.00,WUHU216HW,2013-03-27 22:36:00,
2013-03-27 18:38:00,50.0,28.4,29.87,SW,225,1.8,5.4,43,0.00,,,0.00,WUHU216HW,2013-03-27 22:38:00,
2013-03-27 18:39:00,50.2,28.4,29.87,SW,225,3.8,5.4,43,0.00,,,0.00,WUHU216HW,2013-03-27 22:39:00,
2013-03-27 18:41:00,50.0,28.4,29.87,WSW,248,4.9,4.9,43,0.00,,,0.00,WUHU216HW,2013-03-27 22:41:00,
2013-03-27 18:42:00,50.0,28.4,29.87,WNW,293,6.7,6.7,43,0.00,,,0.00,WUHU216HW,2013-03-27 22:42:00,
2013-03-27 18:43:00,50.0,28.4,29.86,SW,225,4.7,6.7,43,0.00,,,0.00,WUHU216HW,2013-03-27 22:43:00,
2013-03-27 18:45:00,49.9,28.2,29.87,West,270,3.1,6.7,43,0.00,,,0.00,WUHU216HW,2013-03-27 22:45:00,
2013-03-27 18:46:00,49.9,28.2,29.87,SW,225,1.6,6.7,43,0.00,,,0.00,WUHU216HW,2013-03-27 22:46:00,
2013-03-27 18:48:00,49.7,28.5,29.87,West,270,1.6,6.7,44,0.00,,,0.00,WUHU216HW,2013-03-27 22:48:00,
2013-03-27 18:49:00,49.7,28.5,29.87,WSW,248,2.9,6.7,44,0.00,,,0.00,WUHU216HW,2013-03-27 22:49:00,
2013-03-27 18:51:00,49.7,28.5,29.87,SSW,203,3.1,6.7,44,0.00,,,0.00,WUHU216HW,2013-03-27 22:51:00,
2013-03-27 18:52:00,49.5,28.4,29.87,SW,225,1.6,4.7,44,0.00,,,0.00,WUHU216HW,2013-03-27 22:52:00,
2013-03-27 18:54:00,49.5,28.4,29.87,WSW,248,1.8,3.6,44,0.00,,,0.00,WUHU216HW,2013-03-27 22:54:00,
2013-03-27 18:55:00,49.3,28.2,29.87,WSW,248,1.8,3.6,44,0.00,,,0.00,WUHU216HW,2013-03-27 22:55:00,
2013-03-27 18:57:00,49.3,28.7,29.87,SW,225,1.6,3.6,45,0.00,,,0.00,WUHU216HW,2013-03-27 22:57:00,
2013-03-27 18:58:00,49.3,28.7,29.87,SW,225,1.8,3.6,45,0.00,,,0.00,WUHU216HW,2013-03-27 22:58:00,
2013-03-27 19:00:00,49.3,28.7,29.87,South,180,0.0,3.6,45,0.00,,,0.00,WUHU216HW,2013-03-27 23:00:00,
2013-03-27 19:02:00,49.1,28.6,29.87,SW,225,4.3,4.3,45,0.00,,,0.00,WUHU216HW,2013-03-27 23:02:00,
2013-03-27 19:03:00,49.1,28.6,29.87,SSW,203,4.0,4.3,45,0.00,,,0.00,WUHU216HW,2013-03-27 23:03:00,
2013-03-27 19:05:00,49.0,29.0,29.87,WSW,248,4.7,4.7,46,0.00,,,0.00,WUHU216HW,2013-03-27 23:05:00,
2013-03-27 19:06:00,49.0,29.0,29.87,SW,225,0.9,4.7,46,0.00,,,0.00,WUHU216HW,2013-03-27 23:06:00,
2013-03-27 19:08:00,49.0,29.0,29.87,SSW,203,1.1,4.7,46,0.00,,,0.00,WUHU216HW,2013-03-27 23:08:00,
2013-03-27 19:09:00,49.0,29.0,29.88,WSW,248,0.7,4.7,46,0.00,,,0.00,WUHU216HW,2013-03-27 23:09:00,
2013-03-27 19:11:00,48.8,28.8,29.88,NNW,338,3.6,4.7,46,0.00,,,0.00,WUHU216HW,2013-03-27 23:11:00,
2013-03-27 19:12:00,48.8,28.8,29.88,West,270,4.7,4.7,46,0.00,,,0.00,WUHU216HW,2013-03-27 23:12:00,
2013-03-27 19:14:00,48.8,28.8,29.88,SW,225,1.1,4.7,46,0.00,,,0.00,WUHU216HW,2013-03-27 23:14:00,
2013-03-27 19:15:00,48.8,28.8,29.88,SW,225,0.9,4.7,46,0.00,,,0.00,WUHU216HW,2013-03-27 23:15:00,
2013-03-27 19:17:00,48.8,29.4,29.88,West,270,2.7,4.7,47,0.00,,,0.00,WUHU216HW,2013-03-27 23:17:00,
2013-03-27 19:18:00,48.8,29.4,29.88,SW,225,1.8,4.7,47,0.00,,,0.00,WUHU216HW,2013-03-27 23:18:00,
2013-03-27 19:20:00,48.8,29.4,29.88,West,270,3.6,4.7,47,0.00,,,0.00,WUHU216HW,2013-03-27 23:20:00,
2013-03-27 19:21:00,48.8,29.4,29.88,West,270,5.6,5.6,47,0.00,,,0.00,WUHU216HW,2013-03-27 23:21:00,
2013-03-27 19:23:00,48.6,29.2,29.88,SSW,203,7.4,7.4,47,0.00,,,0.00,WUHU216HW,2013-03-27 23:23:00,
2013-03-27 19:24:00,48.6,29.2,29.88,West,270,2.9,7.4,47,0.00,,,0.00,WUHU216HW,2013-03-27 23:24:00,
2013-03-27 19:26:00,48.6,29.2,29.88,NW,315,4.0,7.4,47,0.00,,,0.00,WUHU216HW,2013-03-27 23:26:00,
2013-03-27 19:27:00,48.4,29.0,29.88,NW,315,9.6,9.6,47,0.00,,,0.00,WUHU216HW,2013-03-27 23:27:00,
2013-03-27 19:28:00,48.4,29.5,29.88,NW,315,7.2,9.6,48,0.00,,,0.00,WUHU216HW,2013-03-27 23:28:00,
2013-03-27 19:30:00,48.2,29.3,29.89,West,270,6.3,9.6,48,0.00,,,0.00,WUHU216HW,2013-03-27 23:30:00,
2013-03-27 19:31:00,48.2,29.3,29.89,WNW,293,7.6,9.6,48,0.00,,,0.00,WUHU216HW,2013-03-27 23:31:00,
2013-03-27 19:33:00,48.1,29.2,29.88,WSW,248,4.9,9.6,48,0.00,,,0.00,WUHU216HW,2013-03-27 23:33:00,
2013-03-27 19:34:00,48.1,29.2,29.89,NNW,338,5.1,9.6,48,0.00,,,0.00,WUHU216HW,2013-03-27 23:34:00,
2013-03-27 19:36:00,47.9,29.5,29.88,NW,315,2.5,9.6,49,0.00,,,0.00,WUHU216HW,2013-03-27 23:36:00,
2013-03-27 19:37:00,47.9,29.5,29.89,NW,315,5.1,7.6,49,0.00,,,0.00,WUHU216HW,2013-03-27 23:37:00,
2013-03-27 19:39:00,47.9,29.5,29.89,WSW,248,1.6,7.6,49,0.00,,,0.00,WUHU216HW,2013-03-27 23:39:00,
2013-03-27 19:40:00,47.9,29.5,29.89,NW,315,6.3,7.6,49,0.00,,,0.00,WUHU216HW,2013-03-27 23:40:00,
2013-03-27 19:42:00,47.7,29.4,29.89,WSW,248,2.7,6.3,49,0.00,,,0.00,WUHU216HW,2013-03-27 23:42:00,
2013-03-27 19:43:00,47.7,29.4,29.89,West,270,3.4,6.3,49,0.00,,,0.00,WUHU216HW,2013-03-27 23:43:00,
2013-03-27 19:45:00,47.7,29.4,29.89,SSW,203,3.4,6.3,49,0.00,,,0.00,WUHU216HW,2013-03-27 23:45:00,
2013-03-27 19:46:00,47.7,29.4,29.89,WNW,293,6.7,6.7,49,0.00,,,0.00,WUHU216HW,2013-03-27 23:46:00,
2013-03-27 19:48:00,47.5,29.3,29.89,West,270,2.9,6.7,49,0.00,,,0.00,WUHU216HW,2013-03-27 23:48:00,
2013-03-27 19:49:00,47.5,29.3,29.89,WSW,248,2.7,6.7,49,0.00,,,0.00,WUHU216HW,2013-03-27 23:49:00,
2013-03-27 19:51:00,47.5,29.3,29.89,NW,315,1.8,6.7,49,0.00,,,0.00,WUHU216HW,2013-03-27 23:51:00,
2013-03-27 19:52:00,47.5,29.3,29.89,WSW,248,1.3,6.7,49,0.00,,,0.00,WUHU216HW,2013-03-27 23:52:00,
2013-03-27 19:54:00,47.3,29.6,29.89,WSW,248,1.1,6.7,50,0.00,,,0.00,WUHU216HW,2013-03-27 23:54:00,
2013-03-27 19:55:00,47.3,29.6,29.89,WSW,248,2.2,6.7,50,0.00,,,0.00,WUHU216HW,2013-03-27 23:55:00,
2013-03-27 19:57:00,47.3,29.6,29.89,SW,225,1.3,5.8,50,0.00,,,0.00,WUHU216HW,2013-03-27 23:57:00,
2013-03-27 19:58:00,47.3,29.6,29.90,SW,225,1.6,5.8,50,0.00,,,0.00,WUHU216HW,2013-03-27 23:58:00,
2013-03-27 20:00:00,47.3,29.6,29.89,West,270,2.2,4.7,50,0.00,,,0.00,WUHU216HW,2013-03-28 00:00:00,
2013-03-27 20:02:00,47.2,29.4,29.90,West,270,0.7,4.7,50,0.00,,,0.00,WUHU216HW,2013-03-28 00:02:00,
2013-03-27 20:03:00,47.2,29.4,29.90,WSW,248,2.7,4.7,50,0.00,,,0.00,WUHU216HW,2013-03-28 00:03:00,
2013-03-27 20:05:00,47.2,29.4,29.90,WNW,293,2.2,4.7,50,0.00,,,0.00,WUHU216HW,2013-03-28 00:05:00,
2013-03-27 20:06:00,47.2,29.4,29.90,WNW,293,4.7,4.7,50,0.00,,,0.00,WUHU216HW,2013-03-28 00:06:00,
2013-03-27 20:08:00,47.2,29.4,29.90,NW,315,3.4,5.4,50,0.00,,,0.00,WUHU216HW,2013-03-28 00:08:00,
2013-03-27 20:09:00,47.0,29.3,29.90,WNW,293,5.8,5.8,50,0.00,,,0.00,WUHU216HW,2013-03-28 00:09:00,
2013-03-27 20:11:00,47.0,29.3,29.90,NW,315,4.7,5.8,50,0.00,,,0.00,WUHU216HW,2013-03-28 00:11:00,
2013-03-27 20:12:00,47.0,29.3,29.90,NW,315,7.2,7.2,50,0.00,,,0.00,WUHU216HW,2013-03-28 00:12:00,
2013-03-27 20:14:00,46.8,29.2,29.90,West,270,5.4,7.2,50,0.00,,,0.00,WUHU216HW,2013-03-28 00:14:00,
2013-03-27 20:15:00,46.8,29.2,29.90,West,270,3.1,7.2,50,0.00,,,0.00,WUHU216HW,2013-03-28 00:15:00,
2013-03-27 20:17:00,46.8,29.2,29.90,NNW,338,5.6,7.2,50,0.00,,,0.00,WUHU216HW,2013-03-28 00:17:00,
2013-03-27 20:18:00,46.6,29.4,29.90,WNW,293,4.0,7.2,51,0.00,,,0.00,WUHU216HW,2013-03-28 00:18:00,
2013-03-27 20:19:00,46.6,29.4,29.90,West,270,3.6,7.2,51,0.00,,,0.00,WUHU216HW,2013-03-28 00:19:00,
2013-03-27 20:21:00,46.6,29.4,29.90,WSW,248,6.5,7.2,51,0.00,,,0.00,WUHU216HW,2013-03-28 00:21:00,
2013-03-27 20:22:00,46.6,29.4,29.90,West,270,4.9,6.5,51,0.00,,,0.00,WUHU216HW,2013-03-28 00:22:00,
2013-03-27 20:24:00,46.4,29.3,29.90,West,270,3.6,6.5,51,0.00,,,0.00,WUHU216HW,2013-03-28 00:24:00,
2013-03-27 20:25:00,46.4,29.3,29.90,NNE,23,2.9,6.5,51,0.00,,,0.00,WUHU216HW,2013-03-28 00:25:00,
2013-03-27 20:27:00,46.4,29.3,29.90,NW,315,5.1,6.5,51,0.00,,,0.00,WUHU216HW,2013-03-28 00:27:00,
2013-03-27 20:28:00,46.4,29.7,29.91,WNW,293,2.7,6.5,52,0.00,,,0.00,WUHU216HW,2013-03-28 00:28:00,
2013-03-27 20:30:00,46.4,29.7,29.91,NNW,338,2.0,6.5,52,0.00,,,0.00,WUHU216HW,2013-03-28 00:30:00,
2013-03-27 20:31:00,46.4,29.7,29.90,West,270,1.1,5.8,52,0.00,,,0.00,WUHU216HW,2013-03-28 00:31:00,
2013-03-27 20:33:00,46.3,29.5,29.90,NNW,338,5.1,5.8,52,0.00,,,0.00,WUHU216HW,2013-03-28 00:33:00,
2013-03-27 20:34:00,46.3,29.5,29.91,SW,225,3.1,5.8,52,0.00,,,0.00,WUHU216HW,2013-03-28 00:34:00,
2013-03-27 20:36:00,46.3,29.5,29.91,NNW,338,4.9,5.8,52,0.00,,,0.00,WUHU216HW,2013-03-28 00:36:00,
2013-03-27 20:37:00,46.1,29.3,29.91,NW,315,1.8,5.8,52,0.00,,,0.00,WUHU216HW,2013-03-28 00:37:00,
2013-03-27 20:39:00,46.1,29.8,29.91,WSW,248,2.2,5.1,53,0.00,,,0.00,WUHU216HW,2013-03-28 00:39:00,
2013-03-27 20:40:00,46.1,29.8,29.91,WSW,248,2.5,5.1,53,0.00,,,0.00,WUHU216HW,2013-03-28 00:40:00,
2013-03-27 20:42:00,46.1,29.3,29.92,NW,315,1.8,5.1,52,0.00,,,0.00,WUHU216HW,2013-03-28 00:42:00,
2013-03-27 20:43:00,46.1,29.8,29.91,WSW,248,0.9,4.9,53,0.00,,,0.00,WUHU216HW,2013-03-28 00:43:00,
2013-03-27 20:45:00,46.1,29.8,29.92,North,0,1.8,4.9,53,0.00,,,0.00,WUHU216HW,2013-03-28 00:45:00,
2013-03-27 20:46:00,46.1,29.8,29.92,West,270,2.2,4.0,53,0.00,,,0.00,WUHU216HW,2013-03-28 00:46:00,
2013-03-27 20:48:00,45.9,29.7,29.92,NNW,338,4.5,4.5,53,0.00,,,0.00,WUHU216HW,2013-03-28 00:48:00,
2013-03-27 20:49:00,45.9,29.7,29.91,SW,225,2.2,4.5,53,0.00,,,0.00,WUHU216HW,2013-03-28 00:49:00,
2013-03-27 20:51:00,45.9,29.7,29.92,SW,225,2.5,4.7,53,0.00,,,0.00,WUHU216HW,2013-03-28 00:51:00,
2013-03-27 20:52:00,45.9,29.7,29.92,WNW,293,2.9,4.7,53,0.00,,,0.00,WUHU216HW,2013-03-28 00:52:00,
2013-03-27 20:53:00,45.9,29.7,29.92,WNW,293,4.0,4.7,53,0.00,,,0.00,WUHU216HW,2013-03-28 00:53:00,
2013-03-27 20:55:00,45.7,29.5,29.92,West,270,4.3,4.7,53,0.00,,,0.00,WUHU216HW,2013-03-28 00:55:00,
2013-03-27 20:56:00,45.7,29.5,29.92,WSW,248,3.6,4.7,53,0.00,,,0.00,WUHU216HW,2013-03-28 00:56:00,
2013-03-27 20:58:00,45.7,29.5,29.92,WSW,248,3.6,4.7,53,0.00,,,0.00,WUHU216HW,2013-03-28 00:58:00,
2013-03-27 21:00:00,45.7,30.0,29.92,SSW,203,4.0,4.7,54,0.00,,,0.00,WUHU216HW,2013-03-28 01:00:00,
2013-03-27 21:01:00,45.7,30.0,29.92,WNW,293,3.6,4.7,54,0.00,,,0.00,WUHU216HW,2013-03-28 01:01:00,
2013-03-27 21:03:00,45.7,30.0,29.92,West,270,3.4,4.7,54,0.00,,,0.00,WUHU216HW,2013-03-28 01:03:00,
2013-03-27 21:04:00,45.7,30.0,29.92,WSW,248,1.3,4.7,54,0.00,,,0.00,WUHU216HW,2013-03-28 01:04:00,
2013-03-27 21:06:00,45.5,29.8,29.92,NW,315,2.0,4.7,54,0.00,,,0.00,WUHU216HW,2013-03-28 01:06:00,
2013-03-27 21:07:00,45.5,29.8,29.92,NNW,338,1.8,4.7,54,0.00,,,0.00,WUHU216HW,2013-03-28 01:07:00,
2013-03-27 21:09:00,45.5,29.8,29.92,SW,225,3.6,4.7,54,0.00,,,0.00,WUHU216HW,2013-03-28 01:09:00,
2013-03-27 21:10:00,45.4,29.6,29.92,NW,315,3.8,4.7,54,0.00,,,0.00,WUHU216HW,2013-03-28 01:10:00,
2013-03-27 21:12:00,45.4,29.6,29.92,WNW,293,3.4,4.7,54,0.00,,,0.00,WUHU216HW,2013-03-28 01:12:00,
2013-03-27 21:13:00,45.4,29.6,29.92,SW,225,1.1,4.7,54,0.00,,,0.00,WUHU216HW,2013-03-28 01:13:00,
2013-03-27 21:15:00,45.4,29.6,29.92,West,270,2.9,3.8,54,0.00,,,0.00,WUHU216HW,2013-03-28 01:15:00,
2013-03-27 21:16:00,45.4,29.6,29.92,WNW,293,2.2,3.8,54,0.00,,,0.00,WUHU216HW,2013-03-28 01:16:00,
2013-03-27 21:18:00,45.4,29.6,29.92,West,270,2.0,3.8,54,0.00,,,0.00,WUHU216HW,2013-03-28 01:18:00,
2013-03-27 21:19:00,45.4,29.6,29.92,WNW,293,2.9,3.8,54,0.00,,,0.00,WUHU216HW,2013-03-28 01:19:00,
2013-03-27 21:21:00,45.2,29.4,29.92,West,270,2.2,3.4,54,0.00,,,0.00,WUHU216HW,2013-03-28 01:21:00,
2013-03-27 21:22:00,45.2,29.4,29.92,WSW,248,3.8,3.8,54,0.00,,,0.00,WUHU216HW,2013-03-28 01:22:00,
2013-03-27 21:24:00,45.2,29.4,29.92,WSW,248,4.3,4.3,54,0.00,,,0.00,WUHU216HW,2013-03-28 01:24:00,
2013-03-27 21:25:00,45.2,29.4,29.92,WNW,293,2.7,4.3,54,0.00,,,0.00,WUHU216HW,2013-03-28 01:25:00,
2013-03-27 21:27:00,45.0,29.4,29.92,West,270,1.1,4.3,54,0.00,,,0.00,WUHU216HW,2013-03-28 01:27:00,
2013-03-27 21:28:00,45.0,29.4,29.92,WSW,248,0.4,4.3,54,0.00,,,0.00,WUHU216HW,2013-03-28 01:28:00,
2013-03-27 21:30:00,45.0,29.4,29.92,SW,225,1.3,4.3,54,0.00,,,0.00,WUHU216HW,2013-03-28 01:30:00,
2013-03-27 21:31:00,45.0,29.4,29.93,SSW,203,2.0,4.3,54,0.00,,,0.00,WUHU216HW,2013-03-28 01:31:00,
2013-03-27 21:33:00,45.0,29.8,29.93,SSW,203,1.3,4.3,55,0.00,,,0.00,WUHU216HW,2013-03-28 01:33:00,
2013-03-27 21:34:00,45.0,29.4,29.93,West,270,0.7,4.0,54,0.00,,,0.00,WUHU216HW,2013-03-28 01:34:00,
2013-03-27 21:35:00,45.0,29.4,29.93,West,270,4.7,4.7,54,0.00,,,0.00,WUHU216HW,2013-03-28 01:35:00,
2013-03-27 21:37:00,45.0,29.8,29.93,West,270,2.5,4.7,55,0.00,,,0.00,WUHU216HW,2013-03-28 01:37:00,
2013-03-27 21:38:00,45.0,29.8,29.92,SSW,203,2.5,4.7,55,0.00,,,0.00,WUHU216HW,2013-03-28 01:38:00,
2013-03-27 21:40:00,45.0,29.8,29.92,WNW,293,1.8,4.7,55,0.00,,,0.00,WUHU216HW,2013-03-28 01:40:00,
2013-03-27 21:41:00,44.8,29.6,29.92,WSW,248,4.3,4.7,55,0.00,,,0.00,WUHU216HW,2013-03-28 01:41:00,
2013-03-27 21:43:00,44.8,29.2,29.92,WSW,248,1.3,4.7,54,0.00,,,0.00,WUHU216HW,2013-03-28 01:43:00,
2013-03-27 21:44:00,44.8,29.2,29.92,West,270,3.1,4.7,54,0.00,,,0.00,WUHU216HW,2013-03-28 01:44:00,
2013-03-27 21:46:00,44.8,29.2,29.93,WNW,293,2.5,4.3,54,0.00,,,0.00,WUHU216HW,2013-03-28 01:46:00,
2013-03-27 21:47:00,44.8,29.2,29.93,WNW,293,3.8,4.3,54,0.00,,,0.00,WUHU216HW,2013-03-28 01:47:00,
2013-03-27 21:49:00,44.6,29.0,29.93,West,270,2.9,4.3,54,0.00,,,0.00,WUHU216HW,2013-03-28 01:49:00,
2013-03-27 21:50:00,44.6,29.0,29.93,NNW,338,2.2,4.3,54,0.00,,,0.00,WUHU216HW,2013-03-28 01:50:00,
2013-03-27 21:52:00,44.6,29.0,29.93,WNW,293,2.5,3.8,54,0.00,,,0.00,WUHU216HW,2013-03-28 01:52:00,
2013-03-27 21:53:00,44.6,29.0,29.93,WNW,293,2.7,3.8,54,0.00,,,0.00,WUHU216HW,2013-03-28 01:53:00,
2013-03-27 21:55:00,44.6,29.0,29.93,West,270,2.9,3.8,54,0.00,,,0.00,WUHU216HW,2013-03-28 01:55:00,
2013-03-27 21:56:00,44.5,28.8,29.93,SW,225,2.0,3.8,54,0.00,,,0.00,WUHU216HW,2013-03-28 01:56:00,
2013-03-27 21:58:00,44.5,28.8,29.93,WSW,248,1.1,2.9,54,0.00,,,0.00,WUHU216HW,2013-03-28 01:58:00,
2013-03-27 22:00:00,44.5,28.8,29.93,SW,225,4.7,4.7,54,0.00,,,0.00,WUHU216HW,2013-03-28 02:00:00,
2013-03-27 22:01:00,44.5,29.3,29.93,WNW,293,1.3,4.7,55,0.00,,,0.00,WUHU216HW,2013-03-28 02:01:00,
2013-03-27 22:03:00,44.5,29.3,29.93,WNW,293,0.9,4.7,55,0.00,,,0.00,WUHU216HW,2013-03-28 02:03:00,
2013-03-27 22:04:00,44.3,29.1,29.93,WSW,248,1.1,4.7,55,0.00,,,0.00,WUHU216HW,2013-03-28 02:04:00,
2013-03-27 22:06:00,44.3,29.1,29.93,WNW,293,2.5,4.7,55,0.00,,,0.00,WUHU216HW,2013-03-28 02:06:00,
2013-03-27 22:07:00,44.3,29.1,29.93,NNW,338,2.9,4.7,55,0.00,,,0.00,WUHU216HW,2013-03-28 02:07:00,
2013-03-27 22:09:00,44.3,29.1,29.93,WSW,248,1.1,4.7,55,0.00,,,0.00,WUHU216HW,2013-03-28 02:09:00,
2013-03-27 22:10:00,44.3,29.1,29.93,SW,225,3.4,3.8,55,0.00,,,0.00,WUHU216HW,2013-03-28 02:10:00,
2013-03-27 22:12:00,44.3,29.1,29.93,SW,225,3.1,3.8,55,0.00,,,0.00,WUHU216HW,2013-03-28 02:12:00,
2013-03-27 22:13:00,44.3,29.1,29.93,NW,315,2.2,3.8,55,0.00,,,0.00,WUHU216HW,2013-03-28 02:13:00,
2013-03-27 22:15:00,44.3,29.1,29.93,WSW,248,2.5,3.4,55,0.00,,,0.00,WUHU216HW,2013-03-28 02:15:00,
2013-03-27 22:16:00,44.1,28.9,29.93,NW,315,0.4,3.4,55,0.00,,,0.00,WUHU216HW,2013-03-28 02:16:00,
2013-03-27 22:18:00,44.1,28.9,29.93,West,270,1.6,3.4,55,0.00,,,0.00,WUHU216HW,2013-03-28 02:18:00,
2013-03-27 22:19:00,44.3,29.1,29.93,West,270,0.4,3.4,55,0.00,,,0.00,WUHU216HW,2013-03-28 02:19:00,
2013-03-27 22:20:00,44.1,28.9,29.93,NNW,338,4.7,4.7,55,0.00,,,0.00,WUHU216HW,2013-03-28 02:20:00,
2013-03-27 22:22:00,44.1,28.9,29.93,SSW,203,0.9,4.7,55,0.00,,,0.00,WUHU216HW,2013-03-28 02:22:00,
2013-03-27 22:23:00,44.1,28.9,29.94,WSW,248,3.1,4.7,55,0.00,,,0.00,WUHU216HW,2013-03-28 02:23:00,
2013-03-27 22:25:00,43.9,28.7,29.94,WSW,248,3.4,4.7,55,0.00,,,0.00,WUHU216HW,2013-03-28 02:25:00,
2013-03-27 22:26:00,44.1,28.9,29.94,South,180,2.7,4.7,55,0.00,,,0.00,WUHU216HW,2013-03-28 02:26:00,
2013-03-27 22:28:00,43.9,28.7,29.94,SW,225,1.3,4.7,55,0.00,,,0.00,WUHU216HW,2013-03-28 02:28:00,
2013-03-27 22:29:00,43.9,28.7,29.94,NW,315,1.6,4.7,55,0.00,,,0.00,WUHU216HW,2013-03-28 02:29:00,
2013-03-27 22:31:00,43.9,28.7,29.94,West,270,1.8,3.4,55,0.00,,,0.00,WUHU216HW,2013-03-28 02:31:00,
2013-03-27 22:32:00,43.9,29.2,29.94,NW,315,0.7,3.4,56,0.00,,,0.00,WUHU216HW,2013-03-28 02:32:00,
2013-03-27 22:34:00,43.9,29.2,29.94,NW,315,3.6,3.6,56,0.00,,,0.00,WUHU216HW,2013-03-28 02:34:00,
2013-03-27 22:35:00,43.9,29.2,29.94,WSW,248,0.4,3.6,56,0.00,,,0.00,WUHU216HW,2013-03-28 02:35:00,
2013-03-27 22:37:00,43.9,29.2,29.94,SW,225,0.4,3.6,56,0.00,,,0.00,WUHU216HW,2013-03-28 02:37:00,
2013-03-27 22:38:00,43.9,29.2,29.94,NW,315,1.8,3.6,56,0.00,,,0.00,WUHU216HW,2013-03-28 02:38:00,
2013-03-27 22:40:00,43.7,29.0,29.93,WSW,248,1.1,3.6,56,0.00,,,0.00,WUHU216HW,2013-03-28 02:40:00,
2013-03-27 22:41:00,43.7,29.0,29.94,NNW,338,3.4,3.6,56,0.00,,,0.00,WUHU216HW,2013-03-28 02:41:00,
2013-03-27 22:43:00,43.7,29.0,29.94,West,270,3.4,3.6,56,0.00,,,0.00,WUHU216HW,2013-03-28 02:43:00,
2013-03-27 22:44:00,43.7,29.0,29.94,SW,225,2.5,3.4,56,0.00,,,0.00,WUHU216HW,2013-03-28 02:44:00,
2013-03-27 22:46:00,43.7,29.0,29.94,WNW,293,1.6,3.4,56,0.00,,,0.00,WUHU216HW,2013-03-28 02:46:00,
2013-03-27 22:47:00,43.6,28.8,29.94,WNW,293,2.5,3.4,56,0.00,,,0.00,WUHU216HW,2013-03-28 02:47:00,
2013-03-27 22:49:00,43.6,28.8,29.94,WNW,293,1.8,3.4,56,0.00,,,0.00,WUHU216HW,2013-03-28 02:49:00,
2013-03-27 22:50:00,43.6,28.8,29.94,WNW,293,1.6,3.4,56,0.00,,,0.00,WUHU216HW,2013-03-28 02:50:00,
2013-03-27 22:51:00,43.6,28.8,29.93,WSW,248,3.4,3.4,56,0.00,,,0.00,WUHU216HW,2013-03-28 02:51:00,
2013-03-27 22:53:00,43.6,28.8,29.94,West,270,4.0,4.0,56,0.00,,,0.00,WUHU216HW,2013-03-28 02:53:00,
2013-03-27 22:54:00,43.6,28.8,29.94,NNW,338,4.5,4.5,56,0.00,,,0.00,WUHU216HW,2013-03-28 02:54:00,
2013-03-27 22:56:00,43.6,29.3,29.94,North,0,2.9,4.5,57,0.00,,,0.00,WUHU216HW,2013-03-28 02:56:00,
2013-03-27 22:57:00,43.4,29.1,29.94,West,270,1.8,4.5,57,0.00,,,0.00,WUHU216HW,2013-03-28 02:57:00,
2013-03-27 23:00:00,43.4,29.1,29.94,NW,315,0.9,5.8,57,0.00,,,0.00,WUHU216HW,2013-03-28 03:00:00,
2013-03-27 23:01:00,43.4,29.1,29.94,WSW,248,2.5,5.8,57,0.00,,,0.00,WUHU216HW,2013-03-28 03:01:00,
2013-03-27 23:03:00,43.2,28.9,29.94,West,270,1.8,5.8,57,0.00,,,0.00,WUHU216HW,2013-03-28 03:03:00,
2013-03-27 23:04:00,43.2,28.9,29.94,WNW,293,6.3,6.3,57,0.00,,,0.00,WUHU216HW,2013-03-28 03:04:00,
2013-03-27 23:06:00,43.2,28.9,29.94,West,270,2.5,6.3,57,0.00,,,0.00,WUHU216HW,2013-03-28 03:06:00,
2013-03-27 23:07:00,43.2,28.9,29.93,WNW,293,2.0,6.3,57,0.00,,,0.00,WUHU216HW,2013-03-28 03:07:00,
2013-03-27 23:08:00,43.2,28.9,29.94,WNW,293,2.7,6.3,57,0.00,,,0.00,WUHU216HW,2013-03-28 03:08:00,
2013-03-27 23:10:00,43.2,28.9,29.94,NW,315,3.1,6.3,57,0.00,,,0.00,WUHU216HW,2013-03-28 03:10:00,
2013-03-27 23:11:00,43.2,28.9,29.94,SSW,203,3.4,6.3,57,0.00,,,0.00,WUHU216HW,2013-03-28 03:11:00,
2013-03-27 23:13:00,43.2,28.9,29.94,WSW,248,2.0,6.3,57,0.00,,,0.00,WUHU216HW,2013-03-28 03:13:00,
2013-03-27 23:14:00,43.0,28.8,29.94,West,270,2.5,3.8,57,0.00,,,0.00,WUHU216HW,2013-03-28 03:14:00,
2013-03-27 23:16:00,43.2,28.9,29.94,NW,315,2.0,3.8,57,0.00,,,0.00,WUHU216HW,2013-03-28 03:16:00,
2013-03-27 23:17:00,43.0,28.8,29.94,WNW,293,1.6,3.8,57,0.00,,,0.00,WUHU216HW,2013-03-28 03:17:00,
2013-03-27 23:19:00,43.0,28.8,29.94,West,270,3.8,3.8,57,0.00,,,0.00,WUHU216HW,2013-03-28 03:19:00,
2013-03-27 23:20:00,43.0,29.2,29.94,West,270,5.1,5.1,58,0.00,,,0.00,WUHU216HW,2013-03-28 03:20:00,
2013-03-27 23:22:00,43.0,28.8,29.94,WNW,293,2.7,5.1,57,0.00,,,0.00,WUHU216HW,2013-03-28 03:22:00,
2013-03-27 23:23:00,43.0,28.8,29.94,West,270,2.5,5.1,57,0.00,,,0.00,WUHU216HW,2013-03-28 03:23:00,
2013-03-27 23:25:00,43.0,28.8,29.94,WSW,248,1.8,5.1,57,0.00,,,0.00,WUHU216HW,2013-03-28 03:25:00,
2013-03-27 23:26:00,43.0,29.2,29.94,West,270,1.8,5.1,58,0.00,,,0.00,WUHU216HW,2013-03-28 03:26:00,
2013-03-27 23:28:00,43.0,29.2,29.94,NNW,338,1.3,5.1,58,0.00,,,0.00,WUHU216HW,2013-03-28 03:28:00,
2013-03-27 23:29:00,42.8,29.0,29.93,NW,315,2.2,5.1,58,0.00,,,0.00,WUHU216HW,2013-03-28 03:29:00,
2013-03-27 23:31:00,42.8,29.0,29.94,NW,315,2.5,4.0,58,0.00,,,0.00,WUHU216HW,2013-03-28 03:31:00,
2013-03-27 23:32:00,42.8,29.0,29.93,West,270,1.1,4.0,58,0.00,,,0.00,WUHU216HW,2013-03-28 03:32:00,
2013-03-27 23:34:00,42.8,29.0,29.93,West,270,1.1,4.0,58,0.00,,,0.00,WUHU216HW,2013-03-28 03:34:00,
2013-03-27 23:35:00,42.8,29.0,29.93,SW,225,2.5,4.0,58,0.00,,,0.00,WUHU216HW,2013-03-28 03:35:00,
2013-03-27 23:37:00,42.8,29.0,29.93,NNW,338,1.3,4.0,58,0.00,,,0.00,WUHU216HW,2013-03-28 03:37:00,
2013-03-27 23:38:00,42.8,29.0,29.93,SSW,203,2.0,4.0,58,0.00,,,0.00,WUHU216HW,2013-03-28 03:38:00,
2013-03-27 23:40:00,42.8,29.0,29.93,West,270,1.8,4.0,58,0.00,,,0.00,WUHU216HW,2013-03-28 03:40:00,
2013-03-27 23:41:00,42.8,29.0,29.93,WSW,248,2.0,4.0,58,0.00,,,0.00,WUHU216HW,2013-03-28 03:41:00,
2013-03-27 23:42:00,42.8,29.0,29.93,WNW,293,0.9,4.0,58,0.00,,,0.00,WUHU216HW,2013-03-28 03:42:00,
2013-03-27 23:44:00,42.8,29.0,29.93,WSW,248,1.8,4.0,58,0.00,,,0.00,WUHU216HW,2013-03-28 03:44:00,
2013-03-27 23:45:00,42.8,29.0,29.93,SW,225,2.0,2.0,58,0.00,,,0.00,WUHU216HW,2013-03-28 03:45:00,
2013-03-27 23:47:00,42.8,29.0,29.93,WNW,293,2.5,2.5,58,0.00,,,0.00,WUHU216HW,2013-03-28 03:47:00,
2013-03-27 23:48:00,42.8,29.0,29.93,WSW,248,2.9,2.9,58,0.00,,,0.00,WUHU216HW,2013-03-28 03:48:00,
2013-03-27 23:50:00,42.8,29.0,29.93,WSW,248,1.6,2.9,58,0.00,,,0.00,WUHU216HW,2013-03-28 03:50:00,
2013-03-27 23:51:00,42.8,29.4,29.93,West,270,1.3,2.9,59,0.00,,,0.00,WUHU216HW,2013-03-28 03:51:00,
2013-03-27 23:53:00,42.8,29.0,29.93,WSW,248,3.4,3.4,58,0.00,,,0.00,WUHU216HW,2013-03-28 03:53:00,
2013-03-27 23:54:00,42.8,29.0,29.93,WSW,248,2.0,3.4,58,0.00,,,0.00,WUHU216HW,2013-03-28 03:54:00,
2013-03-27 23:56:00,42.8,29.0,29.93,WSW,248,2.2,3.4,58,0.00,,,0.00,WUHU216HW,2013-03-28 03:56:00,
2013-03-27 23:57:00,42.8,29.4,29.93,West,270,1.8,3.4,59,0.00,,,0.00,WUHU216HW,2013-03-28 03:57:00,
2013-03-27 23:59:00,42.7,29.3,29.93,NW,315,4.7,6.3,59,0.00,,,0.00,WUHU216HW,2013-03-28 03:59:00,